Time,TemperatureF,DewpointF,PressureIn,WindDirection,WindDirectionDegrees,WindSpeedMPH,WindSpeedGustMPH,Humidity,HourlyPrecipIn,Conditions,Clouds,dailyrainin,SolarRadiationWatts/m^2,SoftwareType,DateUTC
2014-09-02 00:00:00,66.5,65.0,29.44,SSW,208,0.0,0.0,95,0.00,,,0.00,0,WeatherCatV1.24B11,2014-09-02 04:00:00,
2014-09-02 00:01:00,66.5,65.0,29.44,SSW,208,0.0,0.0,95,0.00,,,0.00,0,WeatherCatV1.24B11,2014-09-02 04:01:00,
2014-09-02 00:02:00,66.5,65.0,29.44,SSW,208,0.0,0.0,95,0.00,,,0.00,0,WeatherCatV1.24B11,2014-09-02 04:02:00,
2014-09-02 00:06:00,66.4,64.9,29.44,SSW,208,0.0,0.0,95,0.00,,,0.00,0,WeatherCatV1.24B11,2014-09-02 04:06:00,
2014-09-02 00:07:00,66.4,64.9,29.44,SSW,208,0.0,0.0,95,0.00,,,0.00,0,WeatherCatV1.24B11,2014-09-02 04:07:00,
2014-09-02 00:11:00,66.2,64.7,29.44,SSW,208,0.0,0.0,95,0.00,,,0.00,0,WeatherCatV1.24B11,2014-09-02 04:11:00,
2014-09-02 00:12:00,66.2,64.7,29.44,SSW,208,0.0,0.0,95,0.00,,,0.00,0,WeatherCatV1.24B11,2014-09-02 04:12:00,
2014-09-02 00:17:00,66.1,64.6,29.44,SSW,208,0.0,0.0,95,0.00,,,0.00,0,WeatherCatV1.24B11,2014-09-02 04:17:00,
2014-09-02 00:18:00,66.1,64.6,29.44,SSW,208,0.0,0.0,95,0.00,,,0.00,0,WeatherCatV1.24B11,2014-09-02 04:18:00,
2014-09-02 00:22:00,66.0,64.5,29.44,SSW,208,0.0,0.0,95,0.00,,,0.00,0,WeatherCatV1.24B11,2014-09-02 04:22:00,
2014-09-02 00:23:00,66.0,64.5,29.44,SSW,208,0.0,0.0,95,0.00,,,0.00,0,WeatherCatV1.24B11,2014-09-02 04:23:00,
2014-09-02 00:27:00,65.9,64.4,29.44,SSW,208,0.0,0.0,95,0.00,,,0.00,0,WeatherCatV1.24B11,2014-09-02 04:27:00,
2014-09-02 00:28:00,65.9,64.4,29.44,SSW,208,0.0,0.0,95,0.00,,,0.00,0,WeatherCatV1.24B11,2014-09-02 04:28:00,
2014-09-02 00:29:00,65.9,64.4,29.44,SSW,208,0.0,0.0,95,0.00,,,0.00,0,WeatherCatV1.24B11,2014-09-02 04:29:00,
2014-09-02 00:32:00,65.8,64.6,29.44,SSW,208,0.0,0.0,96,0.00,,,0.00,0,WeatherCatV1.24B11,2014-09-02 04:32:00,
2014-09-02 00:33:00,65.8,64.6,29.44,SSW,208,0.0,0.0,96,0.00,,,0.00,0,WeatherCatV1.24B11,2014-09-02 04:33:00,
2014-09-02 00:34:00,65.8,64.6,29.44,SSW,208,0.0,0.0,96,0.00,,,0.00,0,WeatherCatV1.24B11,2014-09-02 04:34:00,
2014-09-02 00:37:00,65.8,64.6,29.44,SSW,208,0.0,0.0,96,0.00,,,0.00,0,WeatherCatV1.24B11,2014-09-02 04:37:00,
2014-09-02 00:38:00,65.7,64.5,29.44,SSW,208,0.0,0.0,96,0.00,,,0.00,0,WeatherCatV1.24B11,2014-09-02 04:38:00,
2014-09-02 00:39:00,65.8,64.6,29.44,SSW,208,0.0,0.0,96,0.00,,,0.00,0,WeatherCatV1.24B11,2014-09-02 04:39:00,
2014-09-02 00:42:00,65.7,64.5,29.44,SSW,208,0.0,0.0,96,0.00,,,0.00,0,WeatherCatV1.24B11,2014-09-02 04:42:00,
2014-09-02 00:43:00,65.7,64.5,29.44,SSW,208,0.0,0.0,96,0.00,,,0.00,0,WeatherCatV1.24B11,2014-09-02 04:43:00,
2014-09-02 00:44:00,65.7,64.5,29.44,SSW,208,0.0,0.0,96,0.00,,,0.00,0,WeatherCatV1.24B11,2014-09-02 04:44:00,
2014-09-02 00:47:00,65.6,64.4,29.44,SSW,208,0.0,0.0,96,0.00,,,0.00,0,WeatherCatV1.24B11,2014-09-02 04:47:00,
2014-09-02 00:48:00,65.6,64.4,29.44,SSW,208,0.0,0.0,96,0.00,,,0.00,0,WeatherCatV1.24B11,2014-09-02 04:48:00,
2014-09-02 00:49:00,65.6,64.4,29.44,SSW,208,0.0,0.0,96,0.00,,,0.00,0,WeatherCatV1.24B11,2014-09-02 04:49:00,
2014-09-02 00:50:00,65.6,64.4,29.44,SSW,208,0.0,0.0,96,0.00,,,0.00,0,WeatherCatV1.24B11,2014-09-02 04:50:00,
2014-09-02 00:52:00,65.6,64.4,29.44,SSW,208,0.0,0.0,96,0.00,,,0.00,0,WeatherCatV1.24B11,2014-09-02 04:52:00,
2014-09-02 00:53:00,65.6,64.4,29.44,SSW,208,0.0,0.0,96,0.00,,,0.00,0,WeatherCatV1.24B11,2014-09-02 04:53:00,
2014-09-02 00:54:00,65.6,64.4,29.44,SSW,208,0.0,0.0,96,0.00,,,0.00,0,WeatherCatV1.24B11,2014-09-02 04:54:00,
2014-09-02 00:55:00,65.6,64.4,29.44,SSW,208,0.0,0.0,96,0.00,,,0.00,0,WeatherCatV1.24B11,2014-09-02 04:55:00,
2014-09-02 00:58:00,65.6,64.4,29.44,SSW,208,0.0,0.0,96,0.00,,,0.00,0,WeatherCatV1.24B11,2014-09-02 04:58:00,
2014-09-02 00:59:00,65.5,64.3,29.44,SSW,208,0.0,0.0,96,0.00,,,0.00,0,WeatherCatV1.24B11,2014-09-02 04:59:00,
2014-09-02 01:00:00,65.5,64.3,29.44,SSW,208,0.0,0.0,96,0.00,,,0.00,0,WeatherCatV1.24B11,2014-09-02 05:00:00,
2014-09-02 01:03:00,65.5,64.3,29.44,SSW,208,0.0,0.0,96,0.00,,,0.00,0,WeatherCatV1.24B11,2014-09-02 05:03:00,
2014-09-02 01:05:00,65.5,64.3,29.44,SSW,208,0.0,0.0,96,0.00,,,0.00,0,WeatherCatV1.24B11,2014-09-02 05:05:00,
2014-09-02 01:06:00,65.5,64.3,29.44,SSW,208,0.0,0.0,96,0.00,,,0.00,0,WeatherCatV1.24B11,2014-09-02 05:06:00,
2014-09-02 01:08:00,65.5,64.3,29.43,SSW,208,0.0,0.0,96,0.00,,,0.00,0,WeatherCatV1.24B11,2014-09-02 05:08:00,
2014-09-02 01:09:00,65.5,64.3,29.44,SSW,208,0.0,0.0,96,0.00,,,0.00,0,WeatherCatV1.24B11,2014-09-02 05:09:00,
2014-09-02 01:10:00,65.5,64.6,29.43,SSW,208,0.0,0.0,97,0.00,,,0.00,0,WeatherCatV1.24B11,2014-09-02 05:10:00,
2014-09-02 01:11:00,65.5,64.6,29.43,SSW,208,0.0,0.0,97,0.00,,,0.00,0,WeatherCatV1.24B11,2014-09-02 05:11:00,
2014-09-02 01:14:00,65.6,64.7,29.43,SSW,208,0.0,0.0,97,0.00,,,0.00,0,WeatherCatV1.24B11,2014-09-02 05:14:00,
2014-09-02 01:15:00,65.6,64.7,29.43,SSW,208,0.0,0.0,97,0.00,,,0.00,0,WeatherCatV1.24B11,2014-09-02 05:15:00,
2014-09-02 01:16:00,65.5,64.6,29.43,SSW,208,0.0,0.0,97,0.00,,,0.00,0,WeatherCatV1.24B11,2014-09-02 05:16:00,
2014-09-02 01:17:00,65.5,64.6,29.43,SSW,208,0.0,0.0,97,0.00,,,0.00,0,WeatherCatV1.24B11,2014-09-02 05:17:00,
2014-09-02 01:19:00,65.5,64.6,29.43,SSW,208,0.0,0.0,97,0.00,,,0.00,0,WeatherCatV1.24B11,2014-09-02 05:19:00,
2014-09-02 01:20:00,65.5,64.6,29.43,SSW,208,0.0,0.0,97,0.00,,,0.00,0,WeatherCatV1.24B11,2014-09-02 05:20:00,
2014-09-02 01:22:00,65.5,64.6,29.43,SSW,208,0.0,0.0,97,0.00,,,0.00,0,WeatherCatV1.24B11,2014-09-02 05:22:00,
2014-09-02 01:24:00,65.5,64.6,29.43,SSW,208,0.0,0.0,97,0.00,,,0.00,0,WeatherCatV1.24B11,2014-09-02 05:24:00,
2014-09-02 01:25:00,65.5,64.6,29.43,SSW,208,0.0,0.0,97,0.00,,,0.00,0,WeatherCatV1.24B11,2014-09-02 05:25:00,
2014-09-02 01:27:00,65.6,64.7,29.43,SSW,208,0.0,0.0,97,0.00,,,0.00,0,WeatherCatV1.24B11,2014-09-02 05:27:00,
2014-09-02 01:28:00,65.6,64.7,29.42,SSW,208,0.0,0.0,97,0.00,,,0.00,0,WeatherCatV1.24B11,2014-09-02 05:28:00,
2014-09-02 01:29:00,65.6,64.7,29.42,SSW,208,0.0,0.0,97,0.00,,,0.00,0,WeatherCatV1.24B11,2014-09-02 05:29:00,
2014-09-02 01:30:00,65.6,64.7,29.43,SSW,208,0.0,0.0,97,0.00,,,0.00,0,WeatherCatV1.24B11,2014-09-02 05:30:00,
2014-09-02 01:31:00,65.6,64.7,29.43,SSW,208,0.0,0.0,97,0.00,,,0.00,0,WeatherCatV1.24B11,2014-09-02 05:31:00,
2014-09-02 01:32:00,65.6,64.7,29.43,SSW,208,0.0,0.0,97,0.00,,,0.00,0,WeatherCatV1.24B11,2014-09-02 05:32:00,
2014-09-02 01:33:00,65.6,64.7,29.43,SSW,208,0.0,0.0,97,0.00,,,0.00,0,WeatherCatV1.24B11,2014-09-02 05:33:00,
2014-09-02 01:34:00,65.6,64.7,29.43,SSW,208,0.0,0.0,97,0.00,,,0.00,0,WeatherCatV1.24B11,2014-09-02 05:34:00,
2014-09-02 01:36:00,65.6,64.7,29.43,SSW,208,0.0,0.0,97,0.00,,,0.00,0,WeatherCatV1.24B11,2014-09-02 05:36:00,
2014-09-02 01:37:00,65.6,64.7,29.43,SSW,208,0.0,0.0,97,0.00,,,0.00,0,WeatherCatV1.24B11,2014-09-02 05:37:00,
2014-09-02 01:38:00,65.6,64.7,29.43,SSW,208,0.0,0.0,97,0.00,,,0.00,0,WeatherCatV1.24B11,2014-09-02 05:38:00,
2014-09-02 01:39:00,65.6,64.7,29.43,SSW,208,0.0,0.0,97,0.00,,,0.00,0,WeatherCatV1.24B11,2014-09-02 05:39:00,
2014-09-02 01:41:00,65.6,64.7,29.43,SSW,208,0.0,0.0,97,0.00,,,0.00,0,WeatherCatV1.24B11,2014-09-02 05:41:00,
2014-09-02 01:42:00,65.7,64.8,29.43,SSW,208,0.0,0.0,97,0.00,,,0.00,0,WeatherCatV1.24B11,2014-09-02 05:42:00,
2014-09-02 01:43:00,65.6,64.7,29.43,SSW,208,0.0,0.0,97,0.00,,,0.00,0,WeatherCatV1.24B11,2014-09-02 05:43:00,
2014-09-02 01:44:00,65.7,64.8,29.43,SSW,208,0.0,0.0,97,0.00,,,0.00,0,WeatherCatV1.24B11,2014-09-02 05:44:00,
2014-09-02 01:46:00,65.7,64.8,29.43,SSW,208,0.0,0.0,97,0.00,,,0.00,0,WeatherCatV1.24B11,2014-09-02 05:46:00,
2014-09-02 01:47:00,65.6,64.7,29.43,SSW,208,0.0,0.0,97,0.00,,,0.00,0,WeatherCatV1.24B11,2014-09-02 05:47:00,
2014-09-02 01:48:00,65.7,64.8,29.43,SSW,208,0.0,0.0,97,0.00,,,0.00,0,WeatherCatV1.24B11,2014-09-02 05:48:00,
2014-09-02 01:49:00,65.7,64.8,29.43,SSW,208,0.0,0.0,97,0.00,,,0.00,0,WeatherCatV1.24B11,2014-09-02 05:49:00,
2014-09-02 01:50:00,65.7,64.8,29.43,SSW,208,0.0,0.0,97,0.00,,,0.00,0,WeatherCatV1.24B11,2014-09-02 05:50:00,
2014-09-02 01:52:00,65.7,65.1,29.43,SSW,208,0.0,0.0,98,0.00,,,0.00,0,WeatherCatV1.24B11,2014-09-02 05:52:00,
2014-09-02 01:53:00,65.7,65.1,29.43,SSW,208,0.0,0.0,98,0.00,,,0.00,0,WeatherCatV1.24B11,2014-09-02 05:53:00,
2014-09-02 01:54:00,65.7,65.1,29.43,SSW,208,0.0,0.0,98,0.00,,,0.00,0,WeatherCatV1.24B11,2014-09-02 05:54:00,
2014-09-02 01:55:00,65.7,65.1,29.43,SSW,208,0.0,0.0,98,0.00,,,0.00,0,WeatherCatV1.24B11,2014-09-02 05:55:00,
2014-09-02 01:57:00,65.7,65.1,29.43,SSW,208,0.0,0.0,98,0.00,,,0.00,0,WeatherCatV1.24B11,2014-09-02 05:57:00,
2014-09-02 01:58:00,65.7,65.1,29.43,SSW,208,0.0,0.0,98,0.00,,,0.00,0,WeatherCatV1.24B11,2014-09-02 05:58:00,
2014-09-02 02:00:00,65.7,65.1,29.43,SSW,208,0.0,0.0,98,0.00,,,0.00,0,WeatherCatV1.24B11,2014-09-02 06:00:00,
2014-09-02 02:02:00,65.7,65.1,29.43,SSW,208,0.0,0.0,98,0.00,,,0.00,0,WeatherCatV1.24B11,2014-09-02 06:02:00,
2014-09-02 02:03:00,65.7,65.1,29.43,SSW,208,0.0,0.0,98,0.00,,,0.00,0,WeatherCatV1.24B11,2014-09-02 06:03:00,
2014-09-02 02:04:00,65.7,65.1,29.43,SSW,208,0.0,0.0,98,0.00,,,0.00,0,WeatherCatV1.24B11,2014-09-02 06:04:00,
2014-09-02 02:05:00,65.7,65.1,29.43,SSW,208,0.0,0.0,98,0.00,,,0.00,0,WeatherCatV1.24B11,2014-09-02 06:05:00,
2014-09-02 02:06:00,65.7,65.1,29.43,SSW,208,0.0,0.0,98,0.00,,,0.00,0,WeatherCatV1.24B11,2014-09-02 06:06:00,
2014-09-02 02:07:00,65.6,65.0,29.43,SSW,208,0.0,0.0,98,0.00,,,0.00,0,WeatherCatV1.24B11,2014-09-02 06:07:00,
2014-09-02 02:08:00,65.6,65.0,29.43,SSW,208,0.0,0.0,98,0.00,,,0.00,0,WeatherCatV1.24B11,2014-09-02 06:08:00,
2014-09-02 02:09:00,65.6,65.0,29.43,SSW,208,0.0,0.0,98,0.00,,,0.00,0,WeatherCatV1.24B11,2014-09-02 06:09:00,
2014-09-02 02:10:00,65.6,65.0,29.43,SSW,208,0.0,0.0,98,0.00,,,0.00,0,WeatherCatV1.24B11,2014-09-02 06:10:00,
2014-09-02 02:11:00,65.6,64.7,29.43,SSW,208,0.0,0.0,97,0.00,,,0.00,0,WeatherCatV1.24B11,2014-09-02 06:11:00,
2014-09-02 02:12:00,65.6,64.7,29.43,SSW,208,0.0,0.0,97,0.00,,,0.00,0,WeatherCatV1.24B11,2014-09-02 06:12:00,
2014-09-02 02:13:00,65.5,64.6,29.43,SSW,208,0.0,0.0,97,0.00,,,0.00,0,WeatherCatV1.24B11,2014-09-02 06:13:00,
2014-09-02 02:14:00,65.5,64.6,29.42,SSW,208,0.0,0.0,97,0.00,,,0.00,0,WeatherCatV1.24B11,2014-09-02 06:14:00,
2014-09-02 02:15:00,65.5,64.6,29.43,SSW,208,0.0,0.0,97,0.00,,,0.00,0,WeatherCatV1.24B11,2014-09-02 06:15:00,
2014-09-02 02:16:00,65.5,64.6,29.43,SSW,208,0.0,0.0,97,0.00,,,0.00,0,WeatherCatV1.24B11,2014-09-02 06:16:00,
2014-09-02 02:17:00,65.5,64.6,29.43,SSW,208,0.0,0.0,97,0.00,,,0.00,0,WeatherCatV1.24B11,2014-09-02 06:17:00,
2014-09-02 02:18:00,65.4,64.5,29.43,SSW,208,0.0,0.0,97,0.00,,,0.00,0,WeatherCatV1.24B11,2014-09-02 06:18:00,
2014-09-02 02:19:00,65.4,64.5,29.43,SSW,208,0.0,0.0,97,0.00,,,0.00,0,WeatherCatV1.24B11,2014-09-02 06:19:00,
2014-09-02 02:20:00,65.4,64.5,29.43,SSW,208,0.0,0.0,97,0.00,,,0.00,0,WeatherCatV1.24B11,2014-09-02 06:20:00,
2014-09-02 02:22:00,65.3,64.4,29.43,SSW,208,0.0,0.0,97,0.00,,,0.00,0,WeatherCatV1.24B11,2014-09-02 06:22:00,
2014-09-02 02:23:00,65.3,64.4,29.43,SSW,208,0.0,0.0,97,0.00,,,0.00,0,WeatherCatV1.24B11,2014-09-02 06:23:00,
2014-09-02 02:24:00,65.3,64.4,29.43,SSW,208,0.0,0.0,97,0.00,,,0.00,0,WeatherCatV1.24B11,2014-09-02 06:24:00,
2014-09-02 02:25:00,65.2,64.3,29.43,SSW,208,0.0,0.0,97,0.00,,,0.00,0,WeatherCatV1.24B11,2014-09-02 06:25:00,
2014-09-02 02:26:00,65.2,64.3,29.43,SSW,208,0.0,0.0,97,0.00,,,0.00,0,WeatherCatV1.24B11,2014-09-02 06:26:00,
2014-09-02 02:28:00,65.2,64.3,29.43,SSW,208,0.0,0.0,97,0.00,,,0.00,0,WeatherCatV1.24B11,2014-09-02 06:28:00,
2014-09-02 02:29:00,65.1,64.2,29.43,SSW,208,0.0,0.0,97,0.00,,,0.00,0,WeatherCatV1.24B11,2014-09-02 06:29:00,
2014-09-02 02:30:00,65.1,64.2,29.43,SSW,208,0.0,0.0,97,0.00,,,0.00,0,WeatherCatV1.24B11,2014-09-02 06:30:00,
2014-09-02 02:31:00,65.1,64.2,29.43,SSW,208,0.0,0.0,97,0.00,,,0.00,0,WeatherCatV1.24B11,2014-09-02 06:31:00,
2014-09-02 02:33:00,65.0,63.8,29.43,SSW,208,0.0,0.0,96,0.00,,,0.00,0,WeatherCatV1.24B11,2014-09-02 06:33:00,
2014-09-02 02:34:00,65.0,63.8,29.43,SSW,208,0.0,0.0,96,0.00,,,0.00,0,WeatherCatV1.24B11,2014-09-02 06:34:00,
2014-09-02 02:35:00,64.9,63.7,29.43,SSW,208,0.0,0.0,96,0.00,,,0.00,0,WeatherCatV1.24B11,2014-09-02 06:35:00,
2014-09-02 02:36:00,64.9,63.7,29.42,SSW,208,0.0,0.0,96,0.00,,,0.00,0,WeatherCatV1.24B11,2014-09-02 06:36:00,
2014-09-02 02:39:00,64.8,63.6,29.42,SSW,208,0.0,0.0,96,0.00,,,0.00,0,WeatherCatV1.24B11,2014-09-02 06:39:00,
2014-09-02 02:40:00,64.8,63.6,29.42,SSW,208,0.0,0.0,96,0.00,,,0.00,0,WeatherCatV1.24B11,2014-09-02 06:40:00,
2014-09-02 02:41:00,64.8,63.6,29.42,SSW,208,0.0,0.0,96,0.00,,,0.00,0,WeatherCatV1.24B11,2014-09-02 06:41:00,
2014-09-02 02:44:00,64.7,63.5,29.42,SSW,208,0.0,0.0,96,0.00,,,0.00,0,WeatherCatV1.24B11,2014-09-02 06:44:00,
2014-09-02 02:45:00,64.7,63.5,29.42,SSW,208,0.0,0.0,96,0.00,,,0.00,0,WeatherCatV1.24B11,2014-09-02 06:45:00,
2014-09-02 02:46:00,64.6,63.4,29.42,SSW,208,0.0,0.0,96,0.00,,,0.00,0,WeatherCatV1.24B11,2014-09-02 06:46:00,
2014-09-02 02:47:00,64.6,63.4,29.42,SSW,208,0.0,0.0,96,0.00,,,0.00,0,WeatherCatV1.24B11,2014-09-02 06:47:00,
2014-09-02 02:49:00,64.5,63.3,29.42,SSW,208,0.0,0.0,96,0.00,,,0.00,0,WeatherCatV1.24B11,2014-09-02 06:49:00,
2014-09-02 02:50:00,64.5,63.3,29.42,SSW,208,0.0,0.0,96,0.00,,,0.00,0,WeatherCatV1.24B11,2014-09-02 06:50:00,
2014-09-02 02:51:00,64.5,63.3,29.42,SSW,208,0.0,0.0,96,0.00,,,0.00,0,WeatherCatV1.24B11,2014-09-02 06:51:00,
2014-09-02 02:52:00,64.5,63.3,29.42,SSW,208,0.0,0.0,96,0.00,,,0.00,0,WeatherCatV1.24B11,2014-09-02 06:52:00,
2014-09-02 02:54:00,64.4,63.2,29.42,SSW,208,0.0,0.0,96,0.00,,,0.00,0,WeatherCatV1.24B11,2014-09-02 06:54:00,
2014-09-02 02:55:00,64.4,63.2,29.41,SSW,208,0.0,0.0,96,0.00,,,0.00,0,WeatherCatV1.24B11,2014-09-02 06:55:00,
2014-09-02 02:56:00,64.4,63.2,29.42,SSW,208,0.0,0.0,96,0.00,,,0.00,0,WeatherCatV1.24B11,2014-09-02 06:56:00,
2014-09-02 02:57:00,64.3,63.1,29.41,SSW,208,0.0,0.0,96,0.00,,,0.00,0,WeatherCatV1.24B11,2014-09-02 06:57:00,
2014-09-02 02:59:00,64.3,63.1,29.41,SSW,208,0.0,0.0,96,0.00,,,0.00,0,WeatherCatV1.24B11,2014-09-02 06:59:00,
2014-09-02 03:00:00,64.3,63.1,29.41,SSW,208,0.0,0.0,96,0.00,,,0.00,0,WeatherCatV1.24B11,2014-09-02 07:00:00,
2014-09-02 03:01:00,64.3,63.1,29.41,SSW,208,0.0,0.0,96,0.00,,,0.00,0,WeatherCatV1.24B11,2014-09-02 07:01:00,
2014-09-02 03:02:00,64.3,63.4,29.41,SSW,208,0.0,0.0,97,0.00,,,0.00,0,WeatherCatV1.24B11,2014-09-02 07:02:00,
2014-09-02 03:05:00,64.2,63.3,29.41,SSW,208,0.0,0.0,97,0.00,,,0.00,0,WeatherCatV1.24B11,2014-09-02 07:05:00,
2014-09-02 03:06:00,64.2,63.3,29.41,SSW,208,0.0,0.0,97,0.00,,,0.00,0,WeatherCatV1.24B11,2014-09-02 07:06:00,
2014-09-02 03:07:00,64.1,63.2,29.41,SSW,208,0.0,0.0,97,0.00,,,0.00,0,WeatherCatV1.24B11,2014-09-02 07:07:00,
2014-09-02 03:10:00,64.1,63.2,29.41,SSW,208,0.0,0.0,97,0.00,,,0.00,0,WeatherCatV1.24B11,2014-09-02 07:10:00,
2014-09-02 03:11:00,64.1,63.2,29.41,SSW,208,0.0,0.0,97,0.00,,,0.00,0,WeatherCatV1.24B11,2014-09-02 07:11:00,
2014-09-02 03:12:00,64.1,63.2,29.42,SSW,208,0.0,0.0,97,0.00,,,0.00,0,WeatherCatV1.24B11,2014-09-02 07:12:00,
2014-09-02 03:13:00,64.1,63.2,29.41,SSW,208,0.0,0.0,97,0.00,,,0.00,0,WeatherCatV1.24B11,2014-09-02 07:13:00,
2014-09-02 03:15:00,64.0,63.1,29.42,SSW,208,0.0,0.0,97,0.00,,,0.00,0,WeatherCatV1.24B11,2014-09-02 07:15:00,
2014-09-02 03:16:00,64.0,63.1,29.42,SSW,208,0.0,0.0,97,0.00,,,0.00,0,WeatherCatV1.24B11,2014-09-02 07:16:00,
2014-09-02 03:17:00,64.0,63.1,29.42,SSW,208,0.0,0.0,97,0.00,,,0.00,0,WeatherCatV1.24B11,2014-09-02 07:17:00,
2014-09-02 03:18:00,64.0,63.1,29.42,SSW,208,0.0,0.0,97,0.00,,,0.00,0,WeatherCatV1.24B11,2014-09-02 07:18:00,
2014-09-02 03:20:00,64.0,63.1,29.41,SSW,208,0.0,0.0,97,0.00,,,0.00,0,WeatherCatV1.24B11,2014-09-02 07:20:00,
2014-09-02 03:21:00,64.0,63.1,29.41,SSW,208,0.0,0.0,97,0.00,,,0.00,0,WeatherCatV1.24B11,2014-09-02 07:21:00,
2014-09-02 03:22:00,64.0,63.1,29.41,SSW,208,0.0,0.0,97,0.00,,,0.00,0,WeatherCatV1.24B11,2014-09-02 07:22:00,
2014-09-02 03:23:00,64.0,63.1,29.42,SSW,208,0.0,0.0,97,0.00,,,0.00,0,WeatherCatV1.24B11,2014-09-02 07:23:00,
2014-09-02 03:25:00,63.9,63.0,29.42,SSW,208,0.0,0.0,97,0.00,,,0.00,0,WeatherCatV1.24B11,2014-09-02 07:25:00,
2014-09-02 03:26:00,63.9,63.0,29.41,SSW,208,0.0,0.0,97,0.00,,,0.00,0,WeatherCatV1.24B11,2014-09-02 07:26:00,
2014-09-02 03:27:00,63.9,63.0,29.42,SSW,208,0.0,0.0,97,0.00,,,0.00,0,WeatherCatV1.24B11,2014-09-02 07:27:00,
2014-09-02 03:28:00,63.9,63.0,29.42,SSW,208,0.0,0.0,97,0.00,,,0.00,0,WeatherCatV1.24B11,2014-09-02 07:28:00,
2014-09-02 03:31:00,63.9,63.0,29.42,SSW,208,0.0,0.0,97,0.00,,,0.00,0,WeatherCatV1.24B11,2014-09-02 07:31:00,
2014-09-02 03:32:00,63.9,63.0,29.42,SSW,208,0.0,0.0,97,0.00,,,0.00,0,WeatherCatV1.24B11,2014-09-02 07:32:00,
2014-09-02 03:33:00,63.9,63.0,29.42,SSW,208,0.0,0.0,97,0.00,,,0.00,0,WeatherCatV1.24B11,2014-09-02 07:33:00,
2014-09-02 03:36:00,63.9,63.3,29.42,SSW,208,0.0,0.0,98,0.00,,,0.00,0,WeatherCatV1.24B11,2014-09-02 07:36:00,
2014-09-02 03:37:00,63.9,63.0,29.42,SSW,208,0.0,0.0,97,0.00,,,0.00,0,WeatherCatV1.24B11,2014-09-02 07:37:00,
2014-09-02 03:38:00,63.9,63.0,29.42,SSW,208,0.0,0.0,97,0.00,,,0.00,0,WeatherCatV1.24B11,2014-09-02 07:38:00,
2014-09-02 03:39:00,63.9,63.0,29.42,SSW,208,0.0,0.0,97,0.00,,,0.00,0,WeatherCatV1.24B11,2014-09-02 07:39:00,
2014-09-02 03:41:00,63.9,63.0,29.42,SSW,208,0.0,0.0,97,0.00,,,0.00,0,WeatherCatV1.24B11,2014-09-02 07:41:00,
2014-09-02 03:43:00,63.9,63.0,29.42,SSW,208,0.0,0.0,97,0.00,,,0.00,0,WeatherCatV1.24B11,2014-09-02 07:43:00,
2014-09-02 03:44:00,63.9,63.3,29.41,SSW,208,0.0,0.0,98,0.00,,,0.00,0,WeatherCatV1.24B11,2014-09-02 07:44:00,
2014-09-02 03:46:00,63.9,63.3,29.42,SSW,208,0.0,0.0,98,0.00,,,0.00,0,WeatherCatV1.24B11,2014-09-02 07:46:00,
2014-09-02 03:47:00,63.9,63.3,29.42,SSW,208,0.0,0.0,98,0.00,,,0.00,0,WeatherCatV1.24B11,2014-09-02 07:47:00,
2014-09-02 03:48:00,63.9,63.3,29.42,SSW,208,0.0,0.0,98,0.00,,,0.00,0,WeatherCatV1.24B11,2014-09-02 07:48:00,
2014-09-02 03:49:00,63.9,63.3,29.42,SSW,208,0.0,0.0,98,0.00,,,0.00,0,WeatherCatV1.24B11,2014-09-02 07:49:00,
2014-09-02 03:51:00,63.9,63.3,29.42,SSW,208,0.0,0.0,98,0.00,,,0.00,0,WeatherCatV1.24B11,2014-09-02 07:51:00,
2014-09-02 03:52:00,63.9,63.3,29.42,SSW,208,0.0,0.0,98,0.00,,,0.00,0,WeatherCatV1.24B11,2014-09-02 07:52:00,
2014-09-02 03:53:00,63.9,63.3,29.42,SSW,208,0.0,0.0,98,0.00,,,0.00,0,WeatherCatV1.24B11,2014-09-02 07:53:00,
2014-09-02 03:54:00,63.9,63.3,29.42,SSW,208,0.0,0.0,98,0.00,,,0.00,0,WeatherCatV1.24B11,2014-09-02 07:54:00,
2014-09-02 03:55:00,63.9,63.3,29.42,SSW,208,0.0,0.0,98,0.00,,,0.00,0,WeatherCatV1.24B11,2014-09-02 07:55:00,
2014-09-02 03:57:00,63.9,63.3,29.42,SSW,208,0.0,0.0,98,0.00,,,0.00,0,WeatherCatV1.24B11,2014-09-02 07:57:00,
2014-09-02 03:59:00,63.9,63.3,29.42,SSW,208,0.0,0.0,98,0.00,,,0.00,0,WeatherCatV1.24B11,2014-09-02 07:59:00,
2014-09-02 04:01:00,63.9,63.3,29.42,SSW,208,0.0,0.0,98,0.00,,,0.00,0,WeatherCatV1.24B11,2014-09-02 08:01:00,
2014-09-02 04:02:00,63.9,63.3,29.42,SSW,208,0.0,0.0,98,0.00,,,0.00,0,WeatherCatV1.24B11,2014-09-02 08:02:00,
2014-09-02 04:04:00,63.9,63.3,29.42,SSW,208,0.0,0.0,98,0.00,,,0.00,0,WeatherCatV1.24B11,2014-09-02 08:04:00,
2014-09-02 04:05:00,63.9,63.3,29.42,SSW,208,0.0,0.0,98,0.00,,,0.00,0,WeatherCatV1.24B11,2014-09-02 08:05:00,
2014-09-02 04:06:00,63.8,63.2,29.41,SSW,208,0.0,0.0,98,0.00,,,0.00,0,WeatherCatV1.24B11,2014-09-02 08:06:00,
2014-09-02 04:07:00,63.9,63.3,29.42,SSW,208,0.0,0.0,98,0.00,,,0.00,0,WeatherCatV1.24B11,2014-09-02 08:07:00,
2014-09-02 04:09:00,63.8,63.2,29.41,SSW,208,0.0,0.0,98,0.00,,,0.00,0,WeatherCatV1.24B11,2014-09-02 08:09:00,
2014-09-02 04:10:00,63.9,63.3,29.41,SSW,208,0.0,0.0,98,0.00,,,0.00,0,WeatherCatV1.24B11,2014-09-02 08:10:00,
2014-09-02 04:11:00,63.8,63.2,29.41,SSW,208,0.0,0.0,98,0.00,,,0.00,0,WeatherCatV1.24B11,2014-09-02 08:11:00,
2014-09-02 04:12:00,63.9,63.3,29.41,SSW,208,0.0,0.0,98,0.00,,,0.00,0,WeatherCatV1.24B11,2014-09-02 08:12:00,
2014-09-02 04:14:00,63.8,63.2,29.41,SSW,208,0.0,0.0,98,0.00,,,0.00,0,WeatherCatV1.24B11,2014-09-02 08:14:00,
2014-09-02 04:15:00,63.8,63.2,29.41,SSW,208,0.0,0.0,98,0.00,,,0.00,0,WeatherCatV1.24B11,2014-09-02 08:15:00,
2014-09-02 04:17:00,63.8,63.2,29.41,SSW,208,0.0,0.0,98,0.00,,,0.00,0,WeatherCatV1.24B11,2014-09-02 08:17:00,
2014-09-02 04:18:00,63.8,63.2,29.41,SSW,208,0.0,0.0,98,0.00,,,0.00,0,WeatherCatV1.24B11,2014-09-02 08:18:00,
2014-09-02 04:19:00,63.8,63.2,29.41,SSW,208,0.0,0.0,98,0.00,,,0.00,0,WeatherCatV1.24B11,2014-09-02 08:19:00,
2014-09-02 04:20:00,63.8,63.2,29.41,SSW,208,0.0,0.0,98,0.00,,,0.00,0,WeatherCatV1.24B11,2014-09-02 08:20:00,
2014-09-02 04:22:00,63.8,63.2,29.41,SSW,208,0.0,0.0,98,0.00,,,0.00,0,WeatherCatV1.24B11,2014-09-02 08:22:00,
2014-09-02 04:23:00,63.8,63.2,29.41,SSW,208,0.0,0.0,98,0.00,,,0.00,0,WeatherCatV1.24B11,2014-09-02 08:23:00,
2014-09-02 04:24:00,63.8,63.2,29.40,SSW,208,0.0,0.0,98,0.00,,,0.00,0,WeatherCatV1.24B11,2014-09-02 08:24:00,
2014-09-02 04:25:00,63.8,63.2,29.40,SSW,208,0.0,0.0,98,0.00,,,0.00,0,WeatherCatV1.24B11,2014-09-02 08:25:00,
2014-09-02 04:27:00,63.8,63.2,29.41,SSW,208,0.0,0.0,98,0.00,,,0.00,0,WeatherCatV1.24B11,2014-09-02 08:27:00,
2014-09-02 04:28:00,63.8,63.2,29.41,SSW,208,0.0,0.0,98,0.00,,,0.00,0,WeatherCatV1.24B11,2014-09-02 08:28:00,
2014-09-02 04:29:00,63.7,63.1,29.41,SSW,208,0.0,0.0,98,0.00,,,0.00,0,WeatherCatV1.24B11,2014-09-02 08:29:00,
2014-09-02 04:30:00,63.7,63.1,29.41,SSW,208,0.0,0.0,98,0.00,,,0.00,0,WeatherCatV1.24B11,2014-09-02 08:30:00,
2014-09-02 04:32:00,63.7,63.1,29.41,SSW,208,0.0,0.0,98,0.00,,,0.00,0,WeatherCatV1.24B11,2014-09-02 08:32:00,
2014-09-02 04:34:00,63.7,63.1,29.41,SSW,208,0.0,0.0,98,0.00,,,0.00,0,WeatherCatV1.24B11,2014-09-02 08:34:00,
2014-09-02 04:35:00,63.7,63.1,29.41,SSW,208,0.0,0.0,98,0.00,,,0.00,0,WeatherCatV1.24B11,2014-09-02 08:35:00,
2014-09-02 04:38:00,63.6,63.0,29.41,SSW,208,0.0,0.0,98,0.00,,,0.00,0,WeatherCatV1.24B11,2014-09-02 08:38:00,
2014-09-02 04:39:00,63.6,62.7,29.41,SSW,208,0.0,0.0,97,0.00,,,0.00,0,WeatherCatV1.24B11,2014-09-02 08:39:00,
2014-09-02 04:40:00,63.6,62.7,29.41,SSW,208,0.0,0.0,97,0.00,,,0.00,0,WeatherCatV1.24B11,2014-09-02 08:40:00,
2014-09-02 04:41:00,63.6,63.0,29.41,SSW,208,0.0,0.0,98,0.00,,,0.00,0,WeatherCatV1.24B11,2014-09-02 08:41:00,
2014-09-02 04:44:00,63.6,63.0,29.41,SSW,208,0.0,0.0,98,0.00,,,0.00,0,WeatherCatV1.24B11,2014-09-02 08:44:00,
2014-09-02 04:45:00,63.5,62.9,29.41,SSW,208,0.0,0.0,98,0.00,,,0.00,0,WeatherCatV1.24B11,2014-09-02 08:45:00,
2014-09-02 04:46:00,63.5,62.9,29.41,SSW,208,0.0,0.0,98,0.00,,,0.00,0,WeatherCatV1.24B11,2014-09-02 08:46:00,
2014-09-02 04:49:00,63.5,62.9,29.41,SSW,208,0.0,0.0,98,0.00,,,0.00,0,WeatherCatV1.24B11,2014-09-02 08:49:00,
2014-09-02 04:51:00,63.5,62.9,29.41,SSW,208,0.0,0.0,98,0.00,,,0.00,0,WeatherCatV1.24B11,2014-09-02 08:51:00,
2014-09-02 04:54:00,63.4,62.8,29.41,SSW,208,0.0,0.0,98,0.00,,,0.00,0,WeatherCatV1.24B11,2014-09-02 08:54:00,
2014-09-02 04:55:00,63.4,62.8,29.41,SSW,208,0.0,0.0,98,0.00,,,0.00,0,WeatherCatV1.24B11,2014-09-02 08:55:00,
2014-09-02 04:56:00,63.4,62.8,29.40,SSW,208,0.0,0.0,98,0.00,,,0.00,0,WeatherCatV1.24B11,2014-09-02 08:56:00,
2014-09-02 04:59:00,63.4,62.8,29.40,SSW,208,0.0,0.0,98,0.00,,,0.00,0,WeatherCatV1.24B11,2014-09-02 08:59:00,
2014-09-02 05:00:00,63.4,62.8,29.40,SSW,208,0.0,0.0,98,0.00,,,0.00,0,WeatherCatV1.24B11,2014-09-02 09:00:00,
2014-09-02 05:01:00,63.4,62.8,29.40,SSW,208,0.0,0.0,98,0.00,,,0.00,0,WeatherCatV1.24B11,2014-09-02 09:01:00,
2014-09-02 05:02:00,63.4,62.8,29.40,SSW,208,0.0,0.0,98,0.00,,,0.00,0,WeatherCatV1.24B11,2014-09-02 09:02:00,
2014-09-02 05:05:00,63.4,62.8,29.40,SSW,208,0.0,0.0,98,0.00,,,0.00,0,WeatherCatV1.24B11,2014-09-02 09:05:00,
2014-09-02 05:06:00,63.4,62.8,29.40,SSW,208,0.0,0.0,98,0.00,,,0.00,0,WeatherCatV1.24B11,2014-09-02 09:06:00,
2014-09-02 05:07:00,63.4,62.8,29.40,SSW,208,0.0,0.0,98,0.00,,,0.00,0,WeatherCatV1.24B11,2014-09-02 09:07:00,
2014-09-02 05:10:00,63.4,62.8,29.41,SSW,208,0.0,0.0,98,0.00,,,0.00,0,WeatherCatV1.24B11,2014-09-02 09:10:00,
2014-09-02 05:11:00,63.4,62.8,29.41,SSW,208,0.0,0.0,98,0.00,,,0.00,0,WeatherCatV1.24B11,2014-09-02 09:11:00,
2014-09-02 05:12:00,63.4,62.8,29.41,SSW,208,0.0,0.0,98,0.00,,,0.00,0,WeatherCatV1.24B11,2014-09-02 09:12:00,
2014-09-02 05:15:00,63.4,62.8,29.41,SSW,208,0.0,0.0,98,0.00,,,0.00,0,WeatherCatV1.24B11,2014-09-02 09:15:00,
2014-09-02 05:16:00,63.4,62.8,29.41,SSW,208,0.0,0.0,98,0.00,,,0.00,0,WeatherCatV1.24B11,2014-09-02 09:16:00,
2014-09-02 05:17:00,63.4,62.8,29.41,SSW,208,0.0,0.0,98,0.00,,,0.00,0,WeatherCatV1.24B11,2014-09-02 09:17:00,
2014-09-02 05:21:00,63.4,62.8,29.40,SSW,208,0.0,0.0,98,0.00,,,0.00,0,WeatherCatV1.24B11,2014-09-02 09:21:00,
2014-09-02 05:22:00,63.3,62.7,29.40,SSW,208,0.0,0.0,98,0.00,,,0.00,0,WeatherCatV1.24B11,2014-09-02 09:22:00,
2014-09-02 05:26:00,63.4,62.8,29.40,SSW,208,0.0,0.0,98,0.00,,,0.00,0,WeatherCatV1.24B11,2014-09-02 09:26:00,
2014-09-02 05:27:00,63.3,62.7,29.40,SSW,208,0.0,0.0,98,0.00,,,0.00,0,WeatherCatV1.24B11,2014-09-02 09:27:00,
2014-09-02 05:28:00,63.4,62.8,29.40,SSW,208,0.0,0.0,98,0.00,,,0.00,0,WeatherCatV1.24B11,2014-09-02 09:28:00,
2014-09-02 05:31:00,63.4,62.8,29.40,SSW,208,0.0,0.0,98,0.00,,,0.00,0,WeatherCatV1.24B11,2014-09-02 09:31:00,
2014-09-02 05:32:00,63.3,62.7,29.40,SSW,208,0.0,0.0,98,0.00,,,0.00,0,WeatherCatV1.24B11,2014-09-02 09:32:00,
2014-09-02 05:33:00,63.3,62.7,29.40,SSW,208,0.0,0.0,98,0.00,,,0.00,0,WeatherCatV1.24B11,2014-09-02 09:33:00,
2014-09-02 05:37:00,63.4,62.8,29.40,SSW,208,0.0,0.0,98,0.00,,,0.00,0,WeatherCatV1.24B11,2014-09-02 09:37:00,
2014-09-02 05:38:00,63.4,62.8,29.40,SSW,208,0.0,0.0,98,0.00,,,0.00,0,WeatherCatV1.24B11,2014-09-02 09:38:00,
2014-09-02 05:42:00,63.4,62.8,29.40,SSW,208,0.0,0.0,98,0.00,,,0.00,0,WeatherCatV1.24B11,2014-09-02 09:42:00,
2014-09-02 05:43:00,63.3,62.7,29.40,SSW,208,0.0,0.0,98,0.00,,,0.00,0,WeatherCatV1.24B11,2014-09-02 09:43:00,
2014-09-02 05:47:00,63.4,62.8,29.40,SSW,208,0.0,0.0,98,0.00,,,0.00,0,WeatherCatV1.24B11,2014-09-02 09:47:00,
2014-09-02 05:48:00,63.4,62.8,29.40,SSW,208,0.0,0.0,98,0.00,,,0.00,0,WeatherCatV1.24B11,2014-09-02 09:48:00,
2014-09-02 05:49:00,63.4,62.8,29.40,SSW,208,0.0,0.0,98,0.00,,,0.00,0,WeatherCatV1.24B11,2014-09-02 09:49:00,
2014-09-02 05:53:00,63.4,62.8,29.40,SSW,208,0.0,0.0,98,0.00,,,0.00,0,WeatherCatV1.24B11,2014-09-02 09:53:00,
2014-09-02 05:54:00,63.4,62.8,29.40,SSW,208,0.0,0.0,98,0.00,,,0.00,0,WeatherCatV1.24B11,2014-09-02 09:54:00,
2014-09-02 05:58:00,63.4,62.8,29.40,SSW,208,0.0,0.0,98,0.00,,,0.00,0,WeatherCatV1.24B11,2014-09-02 09:58:00,
2014-09-02 05:59:00,63.4,62.8,29.40,SSW,208,0.0,0.0,98,0.00,,,0.00,0,WeatherCatV1.24B11,2014-09-02 09:59:00,
2014-09-02 06:03:00,63.4,62.8,29.40,SSW,208,0.0,0.0,98,0.00,,,0.00,0,WeatherCatV1.24B11,2014-09-02 10:03:00,
2014-09-02 06:04:00,63.4,62.8,29.41,SSW,208,0.0,0.0,98,0.00,,,0.00,0,WeatherCatV1.24B11,2014-09-02 10:04:00,
2014-09-02 06:05:00,63.4,62.8,29.41,SSW,208,0.0,0.0,98,0.00,,,0.00,0,WeatherCatV1.24B11,2014-09-02 10:05:00,
2014-09-02 06:08:00,63.4,62.8,29.41,SSW,208,0.0,0.0,98,0.00,,,0.00,0,WeatherCatV1.24B11,2014-09-02 10:08:00,
2014-09-02 06:09:00,63.4,62.8,29.41,SSW,208,0.0,0.0,98,0.00,,,0.00,0,WeatherCatV1.24B11,2014-09-02 10:09:00,
2014-09-02 06:10:00,63.4,62.8,29.41,SSW,208,0.0,0.0,98,0.00,,,0.00,0,WeatherCatV1.24B11,2014-09-02 10:10:00,
2014-09-02 06:11:00,63.4,62.8,29.41,SSW,208,0.0,0.0,98,0.00,,,0.00,0,WeatherCatV1.24B11,2014-09-02 10:11:00,
2014-09-02 06:14:00,63.3,62.7,29.41,SSW,208,0.0,0.0,98,0.00,,,0.00,0,WeatherCatV1.24B11,2014-09-02 10:14:00,
2014-09-02 06:15:00,63.3,62.7,29.41,SSW,208,0.0,0.0,98,0.00,,,0.00,0,WeatherCatV1.24B11,2014-09-02 10:15:00,
2014-09-02 06:17:00,63.3,62.7,29.42,SSW,208,0.0,0.0,98,0.00,,,0.00,0,WeatherCatV1.24B11,2014-09-02 10:17:00,
2014-09-02 06:19:00,63.3,62.7,29.42,SSW,208,0.0,0.0,98,0.00,,,0.00,0,WeatherCatV1.24B11,2014-09-02 10:19:00,
2014-09-02 06:20:00,63.3,62.7,29.42,SSW,208,0.0,0.0,98,0.00,,,0.00,0,WeatherCatV1.24B11,2014-09-02 10:20:00,
2014-09-02 06:22:00,63.3,62.7,29.42,SSW,208,0.0,0.0,98,0.00,,,0.00,0,WeatherCatV1.24B11,2014-09-02 10:22:00,
2014-09-02 06:24:00,63.3,62.7,29.42,SSW,208,0.0,0.0,98,0.00,,,0.00,0,WeatherCatV1.24B11,2014-09-02 10:24:00,
2014-09-02 06:25:00,63.3,62.7,29.42,SSW,208,0.0,0.0,98,0.00,,,0.00,0,WeatherCatV1.24B11,2014-09-02 10:25:00,
2014-09-02 06:27:00,63.3,62.7,29.42,SSW,208,0.0,0.0,98,0.00,,,0.00,0,WeatherCatV1.24B11,2014-09-02 10:27:00,
2014-09-02 06:29:00,63.3,62.7,29.42,SSW,208,0.0,0.0,98,0.00,,,0.00,0,WeatherCatV1.24B11,2014-09-02 10:29:00,
2014-09-02 06:30:00,63.3,62.7,29.42,SSW,208,0.0,0.0,98,0.00,,,0.00,0,WeatherCatV1.24B11,2014-09-02 10:30:00,
2014-09-02 06:31:00,63.3,62.7,29.42,SSW,208,0.0,0.0,98,0.00,,,0.00,0,WeatherCatV1.24B11,2014-09-02 10:31:00,
2014-09-02 06:33:00,63.3,62.7,29.42,SSW,208,0.0,0.0,98,0.00,,,0.00,0,WeatherCatV1.24B11,2014-09-02 10:33:00,
2014-09-02 06:34:00,63.3,62.7,29.42,SSW,208,0.0,0.0,98,0.00,,,0.00,0,WeatherCatV1.24B11,2014-09-02 10:34:00,
2014-09-02 06:35:00,63.3,62.7,29.42,SSW,208,0.0,0.0,98,0.00,,,0.00,0,WeatherCatV1.24B11,2014-09-02 10:35:00,
2014-09-02 06:36:00,63.3,62.7,29.42,SSW,208,0.0,0.0,98,0.00,,,0.00,0,WeatherCatV1.24B11,2014-09-02 10:36:00,
2014-09-02 06:38:00,63.3,62.7,29.42,SSW,208,0.0,0.0,98,0.00,,,0.00,0,WeatherCatV1.24B11,2014-09-02 10:38:00,
2014-09-02 06:40:00,63.3,62.7,29.42,SSW,208,0.0,0.0,98,0.00,,,0.00,0,WeatherCatV1.24B11,2014-09-02 10:40:00,
2014-09-02 06:41:00,63.3,62.7,29.42,SSW,208,0.0,0.0,98,0.00,,,0.00,0,WeatherCatV1.24B11,2014-09-02 10:41:00,
2014-09-02 06:43:00,63.3,62.7,29.42,SSW,208,0.0,0.0,98,0.00,,,0.00,0,WeatherCatV1.24B11,2014-09-02 10:43:00,
2014-09-02 06:45:00,63.3,62.7,29.42,SSW,208,0.0,0.0,98,0.00,,,0.00,5,WeatherCatV1.24B11,2014-09-02 10:45:00,
2014-09-02 06:46:00,63.3,62.7,29.42,SSW,208,0.0,0.0,98,0.00,,,0.00,7,WeatherCatV1.24B11,2014-09-02 10:46:00,
2014-09-02 06:48:00,63.3,62.7,29.42,SSW,208,0.0,0.0,98,0.00,,,0.00,7,WeatherCatV1.24B11,2014-09-02 10:48:00,
2014-09-02 06:50:00,63.3,62.7,29.42,SSW,208,0.0,0.0,98,0.00,,,0.00,7,WeatherCatV1.24B11,2014-09-02 10:50:00,
2014-09-02 06:51:00,63.2,62.6,29.42,SSW,208,0.0,0.0,98,0.00,,,0.00,9,WeatherCatV1.24B11,2014-09-02 10:51:00,
2014-09-02 06:52:00,63.2,62.6,29.42,SSW,208,0.0,0.0,98,0.00,,,0.00,9,WeatherCatV1.24B11,2014-09-02 10:52:00,
2014-09-02 06:53:00,63.2,62.6,29.42,SSW,208,0.0,0.0,98,0.00,,,0.00,9,WeatherCatV1.24B11,2014-09-02 10:53:00,
2014-09-02 06:55:00,63.2,62.6,29.42,SSW,208,0.0,0.0,98,0.00,,,0.00,9,WeatherCatV1.24B11,2014-09-02 10:55:00,
2014-09-02 06:56:00,63.3,62.7,29.42,SSW,208,0.0,0.0,98,0.00,,,0.00,9,WeatherCatV1.24B11,2014-09-02 10:56:00,
2014-09-02 06:58:00,63.3,62.7,29.42,SSW,208,0.0,0.0,98,0.00,,,0.00,9,WeatherCatV1.24B11,2014-09-02 10:58:00,
2014-09-02 06:59:00,63.3,62.7,29.42,SSW,208,0.0,0.0,98,0.00,,,0.00,9,WeatherCatV1.24B11,2014-09-02 10:59:00,
2014-09-02 07:00:00,63.3,63.0,29.42,SSW,208,0.0,0.0,99,0.00,,,0.00,11,WeatherCatV1.24B11,2014-09-02 11:00:00,
2014-09-02 07:01:00,63.3,63.0,29.42,SSW,208,0.0,0.0,99,0.00,,,0.00,11,WeatherCatV1.24B11,2014-09-02 11:01:00,
2014-09-02 07:02:00,63.3,63.0,29.43,SSW,208,0.0,0.0,99,0.00,,,0.00,11,WeatherCatV1.24B11,2014-09-02 11:02:00,
2014-09-02 07:03:00,63.3,63.0,29.42,SSW,208,0.0,0.0,99,0.00,,,0.00,11,WeatherCatV1.24B11,2014-09-02 11:03:00,
2014-09-02 07:04:00,63.3,63.0,29.42,SSW,208,0.0,0.0,99,0.00,,,0.00,12,WeatherCatV1.24B11,2014-09-02 11:04:00,
2014-09-02 07:05:00,63.4,63.1,29.42,SSW,208,0.0,0.0,99,0.00,,,0.00,12,WeatherCatV1.24B11,2014-09-02 11:05:00,
2014-09-02 07:07:00,63.4,63.1,29.42,SSW,208,0.0,0.0,99,0.00,,,0.00,11,WeatherCatV1.24B11,2014-09-02 11:07:00,
2014-09-02 07:08:00,63.4,63.1,29.42,SSW,208,0.0,0.0,99,0.00,,,0.00,11,WeatherCatV1.24B11,2014-09-02 11:08:00,
2014-09-02 07:09:00,63.4,63.1,29.42,SSW,208,0.0,0.0,99,0.00,,,0.00,9,WeatherCatV1.24B11,2014-09-02 11:09:00,
2014-09-02 07:10:00,63.4,63.1,29.42,SSW,208,0.0,0.0,99,0.00,,,0.00,9,WeatherCatV1.24B11,2014-09-02 11:10:00,
2014-09-02 07:12:00,63.4,63.1,29.42,SSW,208,0.0,0.0,99,0.00,,,0.00,9,WeatherCatV1.24B11,2014-09-02 11:12:00,
2014-09-02 07:13:00,63.5,63.2,29.42,SSW,208,0.0,0.0,99,0.00,,,0.00,9,WeatherCatV1.24B11,2014-09-02 11:13:00,
2014-09-02 07:14:00,63.5,63.2,29.42,SSW,208,0.0,0.0,99,0.00,,,0.00,9,WeatherCatV1.24B11,2014-09-02 11:14:00,
2014-09-02 07:15:00,63.5,63.2,29.42,SSW,208,0.0,0.0,99,0.00,,,0.00,9,WeatherCatV1.24B11,2014-09-02 11:15:00,
2014-09-02 07:16:00,63.5,63.2,29.42,SSW,208,0.0,0.0,99,0.00,,,0.00,9,WeatherCatV1.24B11,2014-09-02 11:16:00,
2014-09-02 07:17:00,63.5,63.2,29.42,SSW,208,0.0,0.0,99,0.00,,,0.00,9,WeatherCatV1.24B11,2014-09-02 11:17:00,
2014-09-02 07:18:00,63.5,63.2,29.42,SSW,208,0.0,0.0,99,0.00,,,0.00,9,WeatherCatV1.24B11,2014-09-02 11:18:00,
2014-09-02 07:19:00,63.5,63.2,29.42,SSW,208,0.0,0.0,99,0.00,,,0.00,9,WeatherCatV1.24B11,2014-09-02 11:19:00,
2014-09-02 07:20:00,63.5,63.2,29.42,SSW,208,0.0,0.0,99,0.00,,,0.00,9,WeatherCatV1.24B11,2014-09-02 11:20:00,
2014-09-02 07:21:00,63.5,63.2,29.42,SSW,208,0.0,0.0,99,0.00,,,0.00,7,WeatherCatV1.24B11,2014-09-02 11:21:00,
2014-09-02 07:22:00,63.5,63.2,29.42,SSW,208,0.0,0.0,99,0.00,,,0.00,9,WeatherCatV1.24B11,2014-09-02 11:22:00,
2014-09-02 07:23:00,63.5,63.2,29.42,SSW,208,0.0,0.0,99,0.00,,,0.00,9,WeatherCatV1.24B11,2014-09-02 11:23:00,
2014-09-02 07:24:00,63.6,63.3,29.42,SSW,208,0.0,0.0,99,0.00,,,0.00,11,WeatherCatV1.24B11,2014-09-02 11:24:00,
2014-09-02 07:25:00,63.6,63.3,29.42,SSW,208,0.0,0.0,99,0.00,,,0.00,11,WeatherCatV1.24B11,2014-09-02 11:25:00,
2014-09-02 07:26:00,63.6,63.3,29.42,SSW,208,0.0,0.0,99,0.00,,,0.00,11,WeatherCatV1.24B11,2014-09-02 11:26:00,
2014-09-02 07:27:00,63.6,63.3,29.42,SSW,208,0.0,0.0,99,0.00,,,0.00,11,WeatherCatV1.24B11,2014-09-02 11:27:00,
2014-09-02 07:28:00,63.7,63.4,29.42,SSW,208,0.0,0.0,99,0.00,,,0.00,12,WeatherCatV1.24B11,2014-09-02 11:28:00,
2014-09-02 07:29:00,63.7,63.4,29.42,SSW,208,0.0,0.0,99,0.00,,,0.00,12,WeatherCatV1.24B11,2014-09-02 11:29:00,
2014-09-02 07:30:00,63.7,63.4,29.42,SSW,208,0.0,0.0,99,0.00,,,0.00,14,WeatherCatV1.24B11,2014-09-02 11:30:00,
2014-09-02 07:31:00,63.7,63.4,29.42,SSW,208,0.0,0.0,99,0.00,,,0.00,14,WeatherCatV1.24B11,2014-09-02 11:31:00,
2014-09-02 07:32:00,63.7,63.4,29.42,SSW,208,0.0,0.0,99,0.00,,,0.00,14,WeatherCatV1.24B11,2014-09-02 11:32:00,
2014-09-02 07:33:00,63.7,63.4,29.43,SSW,208,0.0,0.0,99,0.00,,,0.00,12,WeatherCatV1.24B11,2014-09-02 11:33:00,
2014-09-02 07:34:00,63.7,63.4,29.43,SSW,208,0.0,0.0,99,0.00,,,0.00,14,WeatherCatV1.24B11,2014-09-02 11:34:00,
2014-09-02 07:36:00,63.8,63.5,29.43,SSW,208,0.0,0.0,99,0.00,,,0.00,14,WeatherCatV1.24B11,2014-09-02 11:36:00,
2014-09-02 07:37:00,63.8,63.5,29.43,SSW,208,0.0,0.0,99,0.00,,,0.00,14,WeatherCatV1.24B11,2014-09-02 11:37:00,
2014-09-02 07:38:00,63.8,63.5,29.43,SSW,208,0.0,0.0,99,0.00,,,0.00,18,WeatherCatV1.24B11,2014-09-02 11:38:00,
2014-09-02 07:39:00,63.8,63.5,29.43,SSW,208,0.0,0.0,99,0.00,,,0.00,25,WeatherCatV1.24B11,2014-09-02 11:39:00,
2014-09-02 07:41:00,63.9,63.6,29.43,SSW,208,0.0,0.0,99,0.00,,,0.00,25,WeatherCatV1.24B11,2014-09-02 11:41:00,
2014-09-02 07:42:00,63.9,63.6,29.43,SSW,208,0.0,0.0,99,0.00,,,0.00,25,WeatherCatV1.24B11,2014-09-02 11:42:00,
2014-09-02 07:43:00,63.9,63.6,29.43,SSW,208,0.0,0.0,99,0.00,,,0.00,25,WeatherCatV1.24B11,2014-09-02 11:43:00,
2014-09-02 07:45:00,63.9,63.6,29.43,SSW,208,0.0,0.0,99,0.00,,,0.00,33,WeatherCatV1.24B11,2014-09-02 11:45:00,
2014-09-02 07:46:00,63.9,63.6,29.43,SSW,208,0.0,0.0,99,0.00,,,0.00,28,WeatherCatV1.24B11,2014-09-02 11:46:00,
2014-09-02 07:47:00,63.9,63.6,29.43,SSW,208,0.0,0.0,99,0.00,,,0.00,28,WeatherCatV1.24B11,2014-09-02 11:47:00,
2014-09-02 07:48:00,63.9,63.6,29.42,SSW,208,0.0,0.0,99,0.00,,,0.00,33,WeatherCatV1.24B11,2014-09-02 11:48:00,
2014-09-02 07:49:00,63.9,63.6,29.42,SSW,208,0.0,0.0,99,0.00,,,0.00,26,WeatherCatV1.24B11,2014-09-02 11:49:00,
2014-09-02 07:50:00,63.9,63.6,29.43,SSW,208,0.0,0.0,99,0.00,,,0.00,30,WeatherCatV1.24B11,2014-09-02 11:50:00,
2014-09-02 07:52:00,64.0,63.7,29.42,SSW,208,0.0,0.0,99,0.00,,,0.00,32,WeatherCatV1.24B11,2014-09-02 11:52:00,
2014-09-02 07:53:00,63.9,63.6,29.42,SSW,208,0.0,0.0,99,0.00,,,0.00,26,WeatherCatV1.24B11,2014-09-02 11:53:00,
2014-09-02 07:54:00,63.9,63.6,29.43,SSW,208,0.0,0.0,99,0.00,,,0.00,28,WeatherCatV1.24B11,2014-09-02 11:54:00,
2014-09-02 07:55:00,63.9,63.6,29.43,SSW,208,0.0,0.0,99,0.00,,,0.00,33,WeatherCatV1.24B11,2014-09-02 11:55:00,
2014-09-02 07:57:00,63.9,63.6,29.43,SSW,208,0.0,0.0,99,0.00,,,0.00,32,WeatherCatV1.24B11,2014-09-02 11:57:00,
2014-09-02 07:58:00,64.0,63.7,29.42,SSW,208,0.0,0.0,99,0.00,,,0.00,32,WeatherCatV1.24B11,2014-09-02 11:58:00,
2014-09-02 07:59:00,64.0,63.7,29.42,SSW,208,0.0,0.0,99,0.00,,,0.00,37,WeatherCatV1.24B11,2014-09-02 11:59:00,
2014-09-02 08:00:00,64.0,63.7,29.42,SSW,208,0.0,0.0,99,0.00,,,0.00,37,WeatherCatV1.24B11,2014-09-02 12:00:00,
2014-09-02 08:02:00,64.0,63.7,29.42,SSW,208,0.0,0.0,99,0.00,,,0.00,35,WeatherCatV1.24B11,2014-09-02 12:02:00,
2014-09-02 08:03:00,64.0,63.7,29.42,SSW,208,0.0,0.0,99,0.00,,,0.00,33,WeatherCatV1.24B11,2014-09-02 12:03:00,
2014-09-02 08:04:00,64.0,63.7,29.42,SSW,208,0.0,0.0,99,0.00,,,0.00,33,WeatherCatV1.24B11,2014-09-02 12:04:00,
2014-09-02 08:05:00,64.0,63.7,29.43,SSW,208,0.0,0.0,99,0.00,,,0.00,33,WeatherCatV1.24B11,2014-09-02 12:05:00,
2014-09-02 08:07:00,64.0,63.7,29.43,SSW,208,0.0,0.0,99,0.00,,,0.00,35,WeatherCatV1.24B11,2014-09-02 12:07:00,
2014-09-02 08:09:00,64.0,63.7,29.43,SSW,208,0.0,0.0,99,0.00,,,0.00,40,WeatherCatV1.24B11,2014-09-02 12:09:00,
2014-09-02 08:10:00,64.1,63.8,29.42,SSW,208,0.0,0.0,99,0.00,,,0.00,32,WeatherCatV1.24B11,2014-09-02 12:10:00,
2014-09-02 08:11:00,64.1,63.8,29.42,SSW,208,0.0,0.0,99,0.00,,,0.00,39,WeatherCatV1.24B11,2014-09-02 12:11:00,
2014-09-02 08:13:00,64.1,63.8,29.42,SSW,208,0.0,0.0,99,0.00,,,0.00,25,WeatherCatV1.24B11,2014-09-02 12:13:00,
2014-09-02 08:14:00,64.1,63.8,29.43,SSW,208,0.0,0.0,99,0.00,,,0.00,25,WeatherCatV1.24B11,2014-09-02 12:14:00,
2014-09-02 08:15:00,64.2,63.9,29.42,SSW,208,0.0,0.0,99,0.00,,,0.00,28,WeatherCatV1.24B11,2014-09-02 12:15:00,
2014-09-02 08:17:00,64.4,64.1,29.42,SSW,208,0.0,0.0,99,0.00,,,0.00,21,WeatherCatV1.24B11,2014-09-02 12:17:00,
2014-09-02 08:19:00,64.5,64.2,29.42,SSW,208,0.0,0.0,99,0.00,,,0.00,21,WeatherCatV1.24B11,2014-09-02 12:19:00,
2014-09-02 08:20:00,64.5,64.2,29.42,SSW,208,0.0,0.0,99,0.00,,,0.00,14,WeatherCatV1.24B11,2014-09-02 12:20:00,
2014-09-02 08:22:00,64.6,64.3,29.42,SSW,208,0.0,0.0,99,0.00,,,0.00,12,WeatherCatV1.24B11,2014-09-02 12:22:00,
2014-09-02 08:24:00,64.6,64.3,29.42,SSW,208,0.0,0.0,99,0.00,,,0.00,11,WeatherCatV1.24B11,2014-09-02 12:24:00,
2014-09-02 08:25:00,64.7,64.4,29.42,SSW,208,0.0,0.0,99,0.00,,,0.00,11,WeatherCatV1.24B11,2014-09-02 12:25:00,
2014-09-02 08:26:00,64.7,64.4,29.42,SSW,208,0.0,0.0,99,0.00,,,0.00,11,WeatherCatV1.24B11,2014-09-02 12:26:00,
2014-09-02 08:27:00,64.7,64.4,29.42,SSW,208,0.0,0.0,99,0.00,,,0.00,12,WeatherCatV1.24B11,2014-09-02 12:27:00,
2014-09-02 08:29:00,64.7,64.4,29.42,SSW,208,0.0,0.0,99,0.00,,,0.00,25,WeatherCatV1.24B11,2014-09-02 12:29:00,
2014-09-02 08:30:00,64.8,64.5,29.42,SSW,208,0.0,0.0,99,0.00,,,0.00,28,WeatherCatV1.24B11,2014-09-02 12:30:00,
2014-09-02 08:31:00,64.8,64.5,29.42,SSW,208,0.0,0.0,99,0.00,,,0.00,32,WeatherCatV1.24B11,2014-09-02 12:31:00,
2014-09-02 08:33:00,64.8,64.5,29.42,SSW,208,0.0,0.0,99,0.00,,,0.00,30,WeatherCatV1.24B11,2014-09-02 12:33:00,
2014-09-02 08:34:00,64.9,64.6,29.42,SSW,208,0.0,0.0,99,0.00,,,0.00,30,WeatherCatV1.24B11,2014-09-02 12:34:00,
2014-09-02 08:35:00,64.9,64.6,29.42,SSW,208,0.0,0.0,99,0.00,,,0.00,30,WeatherCatV1.24B11,2014-09-02 12:35:00,
2014-09-02 08:36:00,64.9,64.9,29.42,SSW,208,0.0,0.0,100,0.00,,,0.00,33,WeatherCatV1.24B11,2014-09-02 12:36:00,
2014-09-02 08:38:00,65.0,65.0,29.42,SSW,208,0.0,0.0,100,0.00,,,0.00,39,WeatherCatV1.24B11,2014-09-02 12:38:00,
2014-09-02 08:39:00,65.0,65.0,29.42,SSW,208,0.0,0.0,100,0.00,,,0.00,40,WeatherCatV1.24B11,2014-09-02 12:39:00,
2014-09-02 08:40:00,65.0,65.0,29.42,SSW,208,0.0,0.0,100,0.00,,,0.00,40,WeatherCatV1.24B11,2014-09-02 12:40:00,
2014-09-02 08:41:00,65.1,65.1,29.42,SSW,208,0.0,0.0,100,0.00,,,0.00,39,WeatherCatV1.24B11,2014-09-02 12:41:00,
2014-09-02 08:42:00,65.1,65.1,29.42,SSW,208,0.0,0.0,100,0.00,,,0.00,37,WeatherCatV1.24B11,2014-09-02 12:42:00,
2014-09-02 08:44:00,65.2,65.2,29.42,SSW,208,0.0,0.0,100,0.00,,,0.00,33,WeatherCatV1.24B11,2014-09-02 12:44:00,
2014-09-02 08:46:00,65.3,65.3,29.42,SSW,208,0.0,0.0,100,0.00,,,0.00,32,WeatherCatV1.24B11,2014-09-02 12:46:00,
2014-09-02 08:47:00,65.3,65.3,29.42,SSW,208,0.0,0.0,100,0.00,,,0.00,32,WeatherCatV1.24B11,2014-09-02 12:47:00,
2014-09-02 08:49:00,65.4,65.4,29.42,SSW,208,0.0,0.0,100,0.00,,,0.00,33,WeatherCatV1.24B11,2014-09-02 12:49:00,
2014-09-02 08:50:00,65.4,65.4,29.42,SSW,208,0.0,0.0,100,0.00,,,0.00,33,WeatherCatV1.24B11,2014-09-02 12:50:00,
2014-09-02 08:51:00,65.4,65.1,29.42,SSW,208,0.0,0.0,99,0.00,,,0.00,33,WeatherCatV1.24B11,2014-09-02 12:51:00,
2014-09-02 08:52:00,65.5,65.5,29.42,SSW,208,0.0,0.0,100,0.00,,,0.00,33,WeatherCatV1.24B11,2014-09-02 12:52:00,
2014-09-02 08:54:00,65.6,65.6,29.42,SSW,208,0.0,0.0,100,0.00,,,0.00,39,WeatherCatV1.24B11,2014-09-02 12:54:00,
2014-09-02 08:55:00,65.6,65.6,29.42,SSW,208,0.0,0.0,100,0.00,,,0.00,40,WeatherCatV1.24B11,2014-09-02 12:55:00,
2014-09-02 08:56:00,65.6,65.6,29.42,SSW,208,0.0,0.0,100,0.00,,,0.00,40,WeatherCatV1.24B11,2014-09-02 12:56:00,
2014-09-02 08:57:00,65.6,65.6,29.42,SSW,208,0.0,0.0,100,0.00,,,0.00,42,WeatherCatV1.24B11,2014-09-02 12:57:00,
2014-09-02 09:00:00,65.7,65.7,29.42,SSW,208,0.0,0.0,100,0.00,,,0.00,40,WeatherCatV1.24B11,2014-09-02 13:00:00,
2014-09-02 09:01:00,65.7,65.7,29.42,SSW,208,0.0,0.0,100,0.00,,,0.00,60,WeatherCatV1.24B11,2014-09-02 13:01:00,
2014-09-02 09:02:00,65.7,65.7,29.42,SSW,208,0.0,0.0,100,0.00,,,0.00,60,WeatherCatV1.24B11,2014-09-02 13:02:00,
2014-09-02 09:05:00,65.8,65.8,29.42,SSW,208,0.0,0.0,100,0.00,,,0.00,69,WeatherCatV1.24B11,2014-09-02 13:05:00,
2014-09-02 09:06:00,65.8,65.8,29.42,SSW,208,0.0,0.0,100,0.00,,,0.00,65,WeatherCatV1.24B11,2014-09-02 13:06:00,
2014-09-02 09:07:00,65.9,65.9,29.42,SSW,208,0.0,0.0,100,0.00,,,0.00,56,WeatherCatV1.24B11,2014-09-02 13:07:00,
2014-09-02 09:08:00,65.9,65.9,29.42,SSW,208,0.0,0.0,100,0.00,,,0.00,54,WeatherCatV1.24B11,2014-09-02 13:08:00,
2014-09-02 09:10:00,65.9,65.9,29.42,SSW,208,0.0,0.0,100,0.00,,,0.00,47,WeatherCatV1.24B11,2014-09-02 13:10:00,
2014-09-02 09:11:00,66.0,66.0,29.42,SSW,208,0.0,0.0,100,0.00,,,0.00,47,WeatherCatV1.24B11,2014-09-02 13:11:00,
2014-09-02 09:12:00,66.0,66.0,29.42,SSW,208,0.0,0.0,100,0.00,,,0.00,47,WeatherCatV1.24B11,2014-09-02 13:12:00,
2014-09-02 09:13:00,66.0,66.0,29.42,SSW,208,0.0,0.0,100,0.00,,,0.00,26,WeatherCatV1.24B11,2014-09-02 13:13:00,
2014-09-02 09:15:00,66.0,66.0,29.42,SSW,208,0.0,0.0,100,0.00,,,0.00,30,WeatherCatV1.24B11,2014-09-02 13:15:00,
2014-09-02 09:16:00,66.1,66.1,29.42,SSW,208,0.0,0.0,100,0.00,,,0.00,37,WeatherCatV1.24B11,2014-09-02 13:16:00,
2014-09-02 09:17:00,66.1,66.1,29.42,SSW,208,0.0,0.0,100,0.00,,,0.00,37,WeatherCatV1.24B11,2014-09-02 13:17:00,
2014-09-02 09:18:00,66.1,66.1,29.42,SSW,208,0.0,0.0,100,0.00,,,0.00,40,WeatherCatV1.24B11,2014-09-02 13:18:00,
2014-09-02 09:19:00,66.1,66.1,29.42,SSW,208,0.0,0.0,100,0.00,,,0.00,54,WeatherCatV1.24B11,2014-09-02 13:19:00,
2014-09-02 09:20:00,66.1,66.1,29.42,SSW,208,0.0,0.0,100,0.00,,,0.00,35,WeatherCatV1.24B11,2014-09-02 13:20:00,
2014-09-02 09:22:00,66.2,66.2,29.42,SSW,208,0.0,0.0,100,0.00,,,0.00,28,WeatherCatV1.24B11,2014-09-02 13:22:00,
2014-09-02 09:24:00,66.2,66.2,29.42,SSW,208,0.0,0.0,100,0.00,,,0.00,28,WeatherCatV1.24B11,2014-09-02 13:24:00,
2014-09-02 09:25:00,66.3,66.3,29.42,SSW,208,0.0,0.0,100,0.00,,,0.00,25,WeatherCatV1.24B11,2014-09-02 13:25:00,
2014-09-02 09:27:00,66.3,66.3,29.42,SSW,208,0.0,0.0,100,0.00,,,0.00,25,WeatherCatV1.24B11,2014-09-02 13:27:00,
2014-09-02 09:30:00,66.3,66.3,29.42,SSW,208,0.0,0.0,100,0.00,,,0.00,28,WeatherCatV1.24B11,2014-09-02 13:30:00,
2014-09-02 09:32:00,66.4,66.4,29.42,SSW,208,0.0,0.0,100,0.00,,,0.00,35,WeatherCatV1.24B11,2014-09-02 13:32:00,
2014-09-02 09:33:00,66.4,66.4,29.42,SSW,208,0.0,0.0,100,0.00,,,0.00,54,WeatherCatV1.24B11,2014-09-02 13:33:00,
2014-09-02 09:35:00,66.5,66.5,29.42,SSW,208,0.0,0.0,100,0.00,,,0.00,33,WeatherCatV1.24B11,2014-09-02 13:35:00,
2014-09-02 09:36:00,66.5,66.5,29.42,SSW,208,0.0,0.0,100,0.00,,,0.00,25,WeatherCatV1.24B11,2014-09-02 13:36:00,
2014-09-02 09:37:00,66.5,66.5,29.42,SSW,208,0.0,0.0,100,0.00,,,0.00,25,WeatherCatV1.24B11,2014-09-02 13:37:00,
2014-09-02 09:38:00,66.5,66.5,29.42,SSW,208,0.0,0.0,100,0.00,,,0.00,25,WeatherCatV1.24B11,2014-09-02 13:38:00,
2014-09-02 09:40:00,66.5,66.5,29.42,SSW,208,0.0,0.0,100,0.00,,,0.00,49,WeatherCatV1.24B11,2014-09-02 13:40:00,
2014-09-02 09:41:00,66.6,66.6,29.42,SSW,208,0.0,0.0,100,0.00,,,0.00,42,WeatherCatV1.24B11,2014-09-02 13:41:00,
2014-09-02 09:42:00,66.6,66.6,29.42,SSW,208,0.0,0.0,100,0.00,,,0.00,51,WeatherCatV1.24B11,2014-09-02 13:42:00,
2014-09-02 09:43:00,66.6,66.6,29.42,SSW,208,0.0,0.0,100,0.00,,,0.00,49,WeatherCatV1.24B11,2014-09-02 13:43:00,
2014-09-02 09:45:00,66.6,66.6,29.42,SSW,208,0.0,0.0,100,0.00,,,0.00,49,WeatherCatV1.24B11,2014-09-02 13:45:00,
2014-09-02 09:46:00,66.6,66.6,29.42,SSW,208,0.0,0.0,100,0.00,,,0.00,49,WeatherCatV1.24B11,2014-09-02 13:46:00,
2014-09-02 09:47:00,66.7,66.7,29.42,SSW,208,0.0,0.0,100,0.00,,,0.00,53,WeatherCatV1.24B11,2014-09-02 13:47:00,
2014-09-02 09:48:00,66.7,66.7,29.42,SSW,208,0.0,0.0,100,0.00,,,0.00,51,WeatherCatV1.24B11,2014-09-02 13:48:00,
2014-09-02 09:51:00,66.8,66.8,29.42,SSW,208,0.0,0.0,100,0.00,,,0.00,53,WeatherCatV1.24B11,2014-09-02 13:51:00,
2014-09-02 09:52:00,66.8,66.8,29.41,SSW,208,0.0,0.0,100,0.00,,,0.00,56,WeatherCatV1.24B11,2014-09-02 13:52:00,
2014-09-02 09:53:00,66.8,66.8,29.41,SSW,208,0.0,0.0,100,0.00,,,0.00,60,WeatherCatV1.24B11,2014-09-02 13:53:00,
2014-09-02 09:54:00,66.9,66.9,29.41,SSW,207,0.0,0.0,100,0.00,,,0.00,44,WeatherCatV1.24B11,2014-09-02 13:54:00,
2014-09-02 09:56:00,66.9,66.9,29.42,SSW,208,0.0,0.0,100,0.00,,,0.00,62,WeatherCatV1.24B11,2014-09-02 13:56:00,
2014-09-02 09:57:00,66.9,66.9,29.42,SSW,208,0.0,0.0,100,0.00,,,0.00,62,WeatherCatV1.24B11,2014-09-02 13:57:00,
2014-09-02 09:58:00,66.9,66.9,29.42,SSW,208,0.0,0.0,100,0.00,,,0.00,54,WeatherCatV1.24B11,2014-09-02 13:58:00,
2014-09-02 09:59:00,67.0,67.0,29.41,SSW,208,0.0,0.0,100,0.00,,,0.00,37,WeatherCatV1.24B11,2014-09-02 13:59:00,
2014-09-02 10:00:00,67.0,67.0,29.42,SSW,208,0.0,0.0,100,0.00,,,0.00,63,WeatherCatV1.24B11,2014-09-02 14:00:00,
2014-09-02 10:02:00,67.0,67.0,29.42,SSW,208,0.0,0.0,100,0.00,,,0.00,54,WeatherCatV1.24B11,2014-09-02 14:02:00,
2014-09-02 10:03:00,67.0,67.0,29.42,SSW,208,0.0,0.0,100,0.00,,,0.00,53,WeatherCatV1.24B11,2014-09-02 14:03:00,
2014-09-02 10:04:00,67.1,67.1,29.42,SSW,208,0.0,0.0,100,0.00,,,0.00,53,WeatherCatV1.24B11,2014-09-02 14:04:00,
2014-09-02 10:06:00,67.1,67.1,29.42,SSW,208,0.0,0.0,100,0.00,,,0.00,39,WeatherCatV1.24B11,2014-09-02 14:06:00,
2014-09-02 10:07:00,67.1,67.1,29.41,SSW,208,0.0,0.0,100,0.00,,,0.00,30,WeatherCatV1.24B11,2014-09-02 14:07:00,
2014-09-02 10:08:00,67.1,67.1,29.41,SSW,208,0.0,0.0,100,0.00,,,0.00,39,WeatherCatV1.24B11,2014-09-02 14:08:00,
2014-09-02 10:09:00,67.1,67.1,29.41,SSW,208,0.0,0.0,100,0.00,,,0.00,72,WeatherCatV1.24B11,2014-09-02 14:09:00,
2014-09-02 10:11:00,67.2,67.2,29.41,SSW,208,0.0,0.0,100,0.00,,,0.00,77,WeatherCatV1.24B11,2014-09-02 14:11:00,
2014-09-02 10:12:00,67.2,67.2,29.41,SSW,208,0.0,0.0,100,0.00,,,0.00,63,WeatherCatV1.24B11,2014-09-02 14:12:00,
2014-09-02 10:13:00,67.2,67.2,29.41,SSW,208,0.0,0.0,100,0.00,,,0.00,63,WeatherCatV1.24B11,2014-09-02 14:13:00,
2014-09-02 10:14:00,67.2,67.2,29.41,SSW,208,0.0,0.0,100,0.00,,,0.00,65,WeatherCatV1.24B11,2014-09-02 14:14:00,
2014-09-02 10:16:00,67.3,67.3,29.41,SSW,208,0.0,0.0,100,0.00,,,0.00,77,WeatherCatV1.24B11,2014-09-02 14:16:00,
2014-09-02 10:18:00,67.3,67.3,29.41,SSW,208,0.0,0.0,100,0.00,,,0.00,76,WeatherCatV1.24B11,2014-09-02 14:18:00,
2014-09-02 10:19:00,67.3,67.3,29.41,SSW,207,0.0,0.0,100,0.00,,,0.00,83,WeatherCatV1.24B11,2014-09-02 14:19:00,
2014-09-02 10:20:00,67.4,67.4,29.41,SSW,208,0.0,0.0,100,0.00,,,0.00,84,WeatherCatV1.24B11,2014-09-02 14:20:00,
2014-09-02 10:21:00,67.4,67.4,29.41,SSW,208,0.0,0.0,100,0.00,,,0.00,84,WeatherCatV1.24B11,2014-09-02 14:21:00,
2014-09-02 10:23:00,67.4,67.4,29.41,SSW,208,0.0,0.0,100,0.00,,,0.00,98,WeatherCatV1.24B11,2014-09-02 14:23:00,
2014-09-02 10:24:00,67.5,67.5,29.41,SSW,207,0.0,0.0,100,0.00,,,0.00,97,WeatherCatV1.24B11,2014-09-02 14:24:00,
2014-09-02 10:25:00,67.5,67.5,29.41,SSW,208,0.0,0.0,100,0.00,,,0.00,79,WeatherCatV1.24B11,2014-09-02 14:25:00,
2014-09-02 10:26:00,67.5,67.5,29.41,SSW,207,0.0,0.0,100,0.00,,,0.00,76,WeatherCatV1.24B11,2014-09-02 14:26:00,
2014-09-02 10:28:00,67.6,67.6,29.41,SSW,208,0.0,0.0,100,0.00,,,0.00,97,WeatherCatV1.24B11,2014-09-02 14:28:00,
2014-09-02 10:29:00,67.6,67.6,29.41,SSW,208,0.0,0.0,100,0.00,,,0.00,88,WeatherCatV1.24B11,2014-09-02 14:29:00,
2014-09-02 10:30:00,67.7,67.7,29.41,SSW,208,0.0,0.0,100,0.00,,,0.00,91,WeatherCatV1.24B11,2014-09-02 14:30:00,
2014-09-02 10:31:00,67.7,67.7,29.41,SSW,208,0.0,0.0,100,0.00,,,0.00,84,WeatherCatV1.24B11,2014-09-02 14:31:00,
2014-09-02 10:33:00,67.8,67.8,29.41,SSW,207,0.0,0.0,100,0.00,,,0.00,81,WeatherCatV1.24B11,2014-09-02 14:33:00,
2014-09-02 10:34:00,67.8,67.8,29.41,SSW,207,0.0,0.0,100,0.00,,,0.00,81,WeatherCatV1.24B11,2014-09-02 14:34:00,
2014-09-02 10:35:00,67.8,67.8,29.41,SSW,208,0.0,0.0,100,0.00,,,0.00,95,WeatherCatV1.24B11,2014-09-02 14:35:00,
2014-09-02 10:36:00,67.9,67.9,29.41,SSW,207,0.0,0.0,100,0.00,,,0.00,83,WeatherCatV1.24B11,2014-09-02 14:36:00,
2014-09-02 10:37:00,67.9,67.9,29.41,SSW,207,0.0,0.0,100,0.00,,,0.00,79,WeatherCatV1.24B11,2014-09-02 14:37:00,
2014-09-02 10:39:00,68.0,68.0,29.41,SSW,208,0.0,0.0,100,0.00,,,0.00,76,WeatherCatV1.24B11,2014-09-02 14:39:00,
2014-09-02 10:40:00,68.0,68.0,29.41,SSW,207,0.0,0.0,100,0.00,,,0.00,76,WeatherCatV1.24B11,2014-09-02 14:40:00,
2014-09-02 10:41:00,68.1,68.1,29.41,SSW,207,0.0,0.0,100,0.00,,,0.00,76,WeatherCatV1.24B11,2014-09-02 14:41:00,
2014-09-02 10:42:00,68.1,68.1,29.41,SSW,208,0.0,0.0,100,0.00,,,0.00,79,WeatherCatV1.24B11,2014-09-02 14:42:00,
2014-09-02 10:44:00,68.2,68.2,29.41,SSW,208,0.0,0.0,100,0.00,,,0.00,83,WeatherCatV1.24B11,2014-09-02 14:44:00,
2014-09-02 10:45:00,68.2,68.2,29.41,SSW,207,0.0,0.0,100,0.00,,,0.00,84,WeatherCatV1.24B11,2014-09-02 14:45:00,
2014-09-02 10:46:00,68.2,68.2,29.41,SSW,207,0.0,0.0,100,0.00,,,0.00,91,WeatherCatV1.24B11,2014-09-02 14:46:00,
2014-09-02 10:47:00,68.3,68.3,29.41,SSW,207,0.0,0.0,100,0.00,,,0.00,169,WeatherCatV1.24B11,2014-09-02 14:47:00,
2014-09-02 10:49:00,68.3,68.3,29.41,SSW,208,0.0,0.0,100,0.00,,,0.00,160,WeatherCatV1.24B11,2014-09-02 14:49:00,
2014-09-02 10:50:00,68.4,68.4,29.41,SSW,207,0.0,0.0,100,0.00,,,0.00,160,WeatherCatV1.24B11,2014-09-02 14:50:00,
2014-09-02 10:51:00,68.4,68.4,29.41,SSW,208,0.0,0.0,100,0.00,,,0.00,125,WeatherCatV1.24B11,2014-09-02 14:51:00,
2014-09-02 10:52:00,68.4,68.4,29.41,SSW,208,0.0,0.0,100,0.00,,,0.00,120,WeatherCatV1.24B11,2014-09-02 14:52:00,
2014-09-02 10:53:00,68.4,68.4,29.41,SSW,207,0.0,0.0,100,0.00,,,0.00,91,WeatherCatV1.24B11,2014-09-02 14:53:00,
2014-09-02 10:54:00,68.5,68.5,29.41,SSW,207,0.0,0.0,100,0.00,,,0.00,81,WeatherCatV1.24B11,2014-09-02 14:54:00,
2014-09-02 10:55:00,68.5,68.5,29.40,SSW,207,0.0,0.0,100,0.00,,,0.00,77,WeatherCatV1.24B11,2014-09-02 14:55:00,
2014-09-02 10:56:00,68.5,68.5,29.40,SSW,207,0.0,0.0,100,0.00,,,0.00,77,WeatherCatV1.24B11,2014-09-02 14:56:00,
2014-09-02 10:57:00,68.6,68.6,29.40,SSW,207,0.0,0.0,100,0.00,,,0.00,76,WeatherCatV1.24B11,2014-09-02 14:57:00,
2014-09-02 10:58:00,68.6,68.6,29.40,SSW,209,0.0,0.0,100,0.00,,,0.00,77,WeatherCatV1.24B11,2014-09-02 14:58:00,
2014-09-02 10:59:00,68.6,68.6,29.40,SSW,209,0.0,0.0,100,0.00,,,0.00,79,WeatherCatV1.24B11,2014-09-02 14:59:00,
2014-09-02 11:01:00,68.7,68.7,29.40,SSW,209,0.0,0.0,100,0.00,,,0.00,76,WeatherCatV1.24B11,2014-09-02 15:01:00,
2014-09-02 11:02:00,68.8,68.8,29.40,SSW,208,0.0,0.0,100,0.00,,,0.00,76,WeatherCatV1.24B11,2014-09-02 15:02:00,
2014-09-02 11:03:00,68.8,68.8,29.40,SSW,208,0.0,0.0,100,0.00,,,0.00,77,WeatherCatV1.24B11,2014-09-02 15:03:00,
2014-09-02 11:04:00,68.9,68.9,29.40,SSW,208,0.0,0.0,100,0.00,,,0.00,77,WeatherCatV1.24B11,2014-09-02 15:04:00,
2014-09-02 11:06:00,69.0,69.0,29.40,SSW,208,0.0,0.0,100,0.00,,,0.00,79,WeatherCatV1.24B11,2014-09-02 15:06:00,
2014-09-02 11:07:00,69.1,69.1,29.40,SSW,203,0.0,0.0,100,0.00,,,0.00,86,WeatherCatV1.24B11,2014-09-02 15:07:00,
2014-09-02 11:08:00,69.1,69.1,29.39,SSW,203,0.0,0.0,100,0.00,,,0.00,93,WeatherCatV1.24B11,2014-09-02 15:08:00,
2014-09-02 11:10:00,69.2,69.2,29.39,SSW,203,0.0,0.0,100,0.00,,,0.00,93,WeatherCatV1.24B11,2014-09-02 15:10:00,
2014-09-02 11:11:00,69.3,69.3,29.39,SSW,203,0.0,0.0,100,0.00,,,0.00,93,WeatherCatV1.24B11,2014-09-02 15:11:00,
2014-09-02 11:12:00,69.4,69.4,29.39,SSW,203,0.0,0.0,100,0.00,,,0.00,510,WeatherCatV1.24B11,2014-09-02 15:12:00,
2014-09-02 11:13:00,69.4,69.4,29.39,SSW,203,0.0,0.0,100,0.00,,,0.00,510,WeatherCatV1.24B11,2014-09-02 15:13:00,
2014-09-02 11:14:00,69.5,69.5,29.39,SSW,203,0.0,0.0,100,0.00,,,0.00,510,WeatherCatV1.24B11,2014-09-02 15:14:00,
2014-09-02 11:15:00,69.5,69.5,29.39,SSW,203,0.0,0.0,100,0.00,,,0.00,102,WeatherCatV1.24B11,2014-09-02 15:15:00,
2014-09-02 11:16:00,69.7,69.4,29.39,SSW,203,0.0,0.0,99,0.00,,,0.00,86,WeatherCatV1.24B11,2014-09-02 15:16:00,
2014-09-02 11:17:00,69.7,69.4,29.39,SSW,203,0.0,0.0,99,0.00,,,0.00,88,WeatherCatV1.24B11,2014-09-02 15:17:00,
2014-09-02 11:18:00,69.8,69.5,29.39,SSW,203,0.0,0.0,99,0.00,,,0.00,104,WeatherCatV1.24B11,2014-09-02 15:18:00,
2014-09-02 11:19:00,69.9,69.6,29.39,SSW,203,0.0,0.0,99,0.00,,,0.00,125,WeatherCatV1.24B11,2014-09-02 15:19:00,
2014-09-02 11:20:00,69.9,69.6,29.39,SSW,203,0.0,0.0,99,0.00,,,0.00,153,WeatherCatV1.24B11,2014-09-02 15:20:00,
2014-09-02 11:21:00,70.1,69.8,29.39,SSW,203,0.0,0.0,99,0.00,,,0.00,153,WeatherCatV1.24B11,2014-09-02 15:21:00,
2014-09-02 11:22:00,70.2,69.9,29.38,SSW,203,0.0,0.0,99,0.00,,,0.00,107,WeatherCatV1.24B11,2014-09-02 15:22:00,
2014-09-02 11:23:00,70.3,69.7,29.38,SSW,203,0.0,0.0,98,0.00,,,0.00,107,WeatherCatV1.24B11,2014-09-02 15:23:00,
2014-09-02 11:24:00,70.4,69.8,29.38,SSW,203,0.0,0.0,98,0.00,,,0.00,107,WeatherCatV1.24B11,2014-09-02 15:24:00,
2014-09-02 11:26:00,70.6,70.0,29.38,SSW,203,0.0,0.0,98,0.00,,,0.00,86,WeatherCatV1.24B11,2014-09-02 15:26:00,
2014-09-02 11:28:00,70.8,70.2,29.38,SSW,203,0.0,0.0,98,0.00,,,0.00,86,WeatherCatV1.24B11,2014-09-02 15:28:00,
2014-09-02 11:29:00,71.0,70.1,29.38,SSW,203,0.0,0.0,97,0.00,,,0.00,84,WeatherCatV1.24B11,2014-09-02 15:29:00,
2014-09-02 11:31:00,71.2,70.0,29.37,SSW,203,0.0,0.0,96,0.00,,,0.00,83,WeatherCatV1.24B11,2014-09-02 15:31:00,
2014-09-02 11:33:00,71.3,70.1,29.37,SSW,203,0.0,0.0,96,0.00,,,0.00,79,WeatherCatV1.24B11,2014-09-02 15:33:00,
2014-09-02 11:34:00,71.5,70.0,29.37,SSW,203,0.0,0.0,95,0.00,,,0.00,76,WeatherCatV1.24B11,2014-09-02 15:34:00,
2014-09-02 11:36:00,71.6,70.1,29.37,SSW,203,0.0,0.0,95,0.00,,,0.00,76,WeatherCatV1.24B11,2014-09-02 15:36:00,
2014-09-02 11:38:00,71.7,70.2,29.37,SSW,203,0.0,0.0,95,0.00,,,0.00,76,WeatherCatV1.24B11,2014-09-02 15:38:00,
2014-09-02 11:39:00,71.9,70.1,29.37,SSW,203,0.0,0.0,94,0.00,,,0.00,76,WeatherCatV1.24B11,2014-09-02 15:39:00,
2014-09-02 11:42:00,72.0,69.9,29.37,SSW,203,0.0,0.0,93,0.00,,,0.00,72,WeatherCatV1.24B11,2014-09-02 15:42:00,
2014-09-02 11:43:00,72.1,70.3,29.36,SSW,203,0.0,0.0,94,0.00,,,0.00,76,WeatherCatV1.24B11,2014-09-02 15:43:00,
2014-09-02 11:44:00,72.3,70.5,29.36,SSW,203,0.0,0.0,94,0.00,,,0.00,83,WeatherCatV1.24B11,2014-09-02 15:44:00,
2014-09-02 11:45:00,72.3,70.5,29.36,SSW,203,0.0,0.0,94,0.00,,,0.00,83,WeatherCatV1.24B11,2014-09-02 15:45:00,
2014-09-02 11:47:00,72.5,70.3,29.36,SSW,203,0.0,0.0,93,0.00,,,0.00,86,WeatherCatV1.24B11,2014-09-02 15:47:00,
2014-09-02 11:48:00,72.6,70.4,29.36,SSW,203,0.0,0.0,93,0.00,,,0.00,86,WeatherCatV1.24B11,2014-09-02 15:48:00,
2014-09-02 11:49:00,72.7,70.6,29.36,SSW,203,0.0,0.0,93,0.00,,,0.00,125,WeatherCatV1.24B11,2014-09-02 15:49:00,
2014-09-02 11:50:00,72.8,70.7,29.36,SSW,203,0.0,0.0,93,0.00,,,0.00,125,WeatherCatV1.24B11,2014-09-02 15:50:00,
2014-09-02 11:52:00,73.0,70.8,29.37,SSW,203,0.0,0.0,93,0.00,,,0.00,123,WeatherCatV1.24B11,2014-09-02 15:52:00,
2014-09-02 11:54:00,73.0,70.8,29.36,SSW,203,0.0,0.0,93,0.00,,,0.00,102,WeatherCatV1.24B11,2014-09-02 15:54:00,
2014-09-02 11:55:00,73.1,70.6,29.36,SSW,203,0.0,0.0,92,0.00,,,0.00,95,WeatherCatV1.24B11,2014-09-02 15:55:00,
2014-09-02 11:58:00,73.3,70.8,29.36,SSW,203,0.0,0.0,92,0.00,,,0.00,79,WeatherCatV1.24B11,2014-09-02 15:58:00,
2014-09-02 11:59:00,73.4,70.9,29.36,SSW,203,0.0,0.0,92,0.00,,,0.00,72,WeatherCatV1.24B11,2014-09-02 15:59:00,
2014-09-02 12:00:00,73.4,70.6,29.36,SSW,203,0.0,0.0,91,0.00,,,0.00,72,WeatherCatV1.24B11,2014-09-02 16:00:00,
2014-09-02 12:04:00,73.8,71.3,29.36,SSW,203,0.0,0.0,92,0.00,,,0.00,62,WeatherCatV1.24B11,2014-09-02 16:04:00,
2014-09-02 12:05:00,73.9,71.4,29.36,SSW,203,0.0,0.0,92,0.00,,,0.00,67,WeatherCatV1.24B11,2014-09-02 16:05:00,
2014-09-02 12:09:00,74.1,71.3,29.36,SSW,203,0.0,0.0,91,0.00,,,0.00,77,WeatherCatV1.24B11,2014-09-02 16:09:00,
2014-09-02 12:10:00,74.1,71.0,29.36,SSW,203,0.0,0.0,90,0.00,,,0.00,81,WeatherCatV1.24B11,2014-09-02 16:10:00,
2014-09-02 12:11:00,74.2,71.1,29.36,SSW,203,0.0,0.0,90,0.00,,,0.00,77,WeatherCatV1.24B11,2014-09-02 16:11:00,
2014-09-02 12:15:00,74.5,71.4,29.36,SSW,203,0.0,0.0,90,0.00,,,0.00,83,WeatherCatV1.24B11,2014-09-02 16:15:00,
2014-09-02 12:16:00,74.5,71.7,29.36,SSW,203,0.0,0.0,91,0.00,,,0.00,83,WeatherCatV1.24B11,2014-09-02 16:16:00,
2014-09-02 12:20:00,74.8,71.7,29.36,SSW,203,0.0,0.0,90,0.00,,,0.00,70,WeatherCatV1.24B11,2014-09-02 16:20:00,
2014-09-02 12:21:00,74.9,71.8,29.36,SSW,203,0.0,0.0,90,0.00,,,0.00,70,WeatherCatV1.24B11,2014-09-02 16:21:00,
2014-09-02 12:25:00,75.3,72.2,29.36,SSW,203,0.0,0.0,90,0.00,,,0.00,70,WeatherCatV1.24B11,2014-09-02 16:25:00,
2014-09-02 12:26:00,75.3,72.2,29.36,SSW,203,0.0,0.0,90,0.00,,,0.00,70,WeatherCatV1.24B11,2014-09-02 16:26:00,
2014-09-02 12:30:00,75.6,71.8,29.36,SSW,213,0.0,0.0,88,0.00,,,0.00,79,WeatherCatV1.24B11,2014-09-02 16:30:00,
2014-09-02 12:31:00,75.6,71.8,29.36,SSW,213,0.0,0.0,88,0.00,,,0.00,79,WeatherCatV1.24B11,2014-09-02 16:31:00,
2014-09-02 12:35:00,75.9,72.1,29.35,SSW,213,0.0,0.0,88,0.00,,,0.00,77,WeatherCatV1.24B11,2014-09-02 16:35:00,
2014-09-02 12:36:00,76.0,72.5,29.35,SSW,213,0.0,0.0,89,0.00,,,0.00,77,WeatherCatV1.24B11,2014-09-02 16:36:00,
2014-09-02 12:37:00,76.0,72.5,29.35,SSW,213,0.0,0.0,89,0.00,,,0.00,77,WeatherCatV1.24B11,2014-09-02 16:37:00,
2014-09-02 12:40:00,76.3,73.1,29.35,SSW,212,0.0,0.0,90,0.00,,,0.00,105,WeatherCatV1.24B11,2014-09-02 16:40:00,
2014-09-02 12:41:00,76.3,73.1,29.35,SSW,212,0.0,0.0,90,0.00,,,0.00,105,WeatherCatV1.24B11,2014-09-02 16:41:00,
2014-09-02 12:42:00,76.4,72.9,29.35,SSW,212,0.0,0.0,89,0.00,,,0.00,113,WeatherCatV1.24B11,2014-09-02 16:42:00,
2014-09-02 12:46:00,76.6,72.4,29.34,SSW,212,0.0,0.0,87,0.00,,,0.00,98,WeatherCatV1.24B11,2014-09-02 16:46:00,
2014-09-02 12:47:00,76.7,72.5,29.34,SSW,212,0.0,0.0,87,0.00,,,0.00,86,WeatherCatV1.24B11,2014-09-02 16:47:00,
2014-09-02 12:49:00,76.8,73.3,29.34,SSW,212,0.0,0.0,89,0.00,,,0.00,116,WeatherCatV1.24B11,2014-09-02 16:49:00,
2014-09-02 12:51:00,76.9,73.1,29.34,SSW,212,0.0,0.0,88,0.00,,,0.00,109,WeatherCatV1.24B11,2014-09-02 16:51:00,
2014-09-02 12:52:00,77.0,73.2,29.33,SSW,212,0.0,0.0,88,0.00,,,0.00,113,WeatherCatV1.24B11,2014-09-02 16:52:00,
2014-09-02 12:53:00,77.1,73.3,29.33,SSW,212,0.0,0.0,88,0.00,,,0.00,111,WeatherCatV1.24B11,2014-09-02 16:53:00,
2014-09-02 12:56:00,77.3,73.1,29.33,SSW,212,0.0,0.0,87,0.00,,,0.00,113,WeatherCatV1.24B11,2014-09-02 16:56:00,
2014-09-02 12:57:00,77.3,73.1,29.33,SSW,212,0.0,0.0,87,0.00,,,0.00,86,WeatherCatV1.24B11,2014-09-02 16:57:00,
2014-09-02 12:58:00,77.5,73.3,29.33,SSW,212,0.0,0.0,87,0.00,,,0.00,97,WeatherCatV1.24B11,2014-09-02 16:58:00,
2014-09-02 13:01:00,77.7,73.2,29.33,SSW,212,0.0,0.0,86,0.00,,,0.00,97,WeatherCatV1.24B11,2014-09-02 17:01:00,
2014-09-02 13:02:00,77.8,73.6,29.33,SSW,212,0.0,0.0,87,0.00,,,0.00,86,WeatherCatV1.24B11,2014-09-02 17:02:00,
2014-09-02 13:04:00,77.9,73.4,29.33,SSW,212,0.0,0.0,86,0.00,,,0.00,95,WeatherCatV1.24B11,2014-09-02 17:04:00,
2014-09-02 13:06:00,78.0,73.5,29.33,SSW,212,0.0,0.0,86,0.00,,,0.00,81,WeatherCatV1.24B11,2014-09-02 17:06:00,
2014-09-02 13:07:00,78.1,73.6,29.32,SSW,212,0.0,0.0,86,0.00,,,0.00,83,WeatherCatV1.24B11,2014-09-02 17:07:00,
2014-09-02 13:08:00,78.2,72.9,29.32,SSW,212,0.0,0.0,84,0.00,,,0.00,118,WeatherCatV1.24B11,2014-09-02 17:08:00,
2014-09-02 13:10:00,78.3,73.1,29.32,SSW,212,0.0,0.0,84,0.00,,,0.00,88,WeatherCatV1.24B11,2014-09-02 17:10:00,
2014-09-02 13:11:00,78.4,73.5,29.33,SSW,212,0.0,0.0,85,0.00,,,0.00,120,WeatherCatV1.24B11,2014-09-02 17:11:00,
2014-09-02 13:12:00,78.5,73.9,29.33,SSW,212,0.0,0.0,86,0.00,,,0.00,81,WeatherCatV1.24B11,2014-09-02 17:12:00,
2014-09-02 13:16:00,78.7,73.8,29.32,South,178,0.0,0.0,85,0.00,,,0.00,123,WeatherCatV1.24B11,2014-09-02 17:16:00,
2014-09-02 13:17:00,78.8,73.9,29.33,South,178,0.0,0.0,85,0.00,,,0.00,114,WeatherCatV1.24B11,2014-09-02 17:17:00,
2014-09-02 13:18:00,78.9,74.0,29.32,South,178,0.0,0.0,85,0.00,,,0.00,116,WeatherCatV1.24B11,2014-09-02 17:18:00,
2014-09-02 13:21:00,79.2,74.3,29.32,South,178,0.0,0.0,85,0.00,,,0.00,69,WeatherCatV1.24B11,2014-09-02 17:21:00,
2014-09-02 13:22:00,79.2,74.3,29.32,South,178,0.0,0.0,85,0.00,,,0.00,79,WeatherCatV1.24B11,2014-09-02 17:22:00,
2014-09-02 13:24:00,79.4,74.1,29.32,South,178,0.0,0.0,84,0.00,,,0.00,76,WeatherCatV1.24B11,2014-09-02 17:24:00,
2014-09-02 13:26:00,79.5,74.2,29.32,South,178,0.0,0.0,84,0.00,,,0.00,128,WeatherCatV1.24B11,2014-09-02 17:26:00,
2014-09-02 13:27:00,79.6,74.7,29.32,South,178,0.0,0.0,85,0.00,,,0.00,120,WeatherCatV1.24B11,2014-09-02 17:27:00,
2014-09-02 13:28:00,79.6,74.7,29.32,South,178,0.0,0.0,85,0.00,,,0.00,116,WeatherCatV1.24B11,2014-09-02 17:28:00,
2014-09-02 13:29:00,79.6,74.7,29.32,South,178,0.0,0.0,85,0.00,,,0.00,81,WeatherCatV1.24B11,2014-09-02 17:29:00,
2014-09-02 13:30:00,79.7,74.4,29.32,South,178,0.0,0.0,84,0.00,,,0.00,109,WeatherCatV1.24B11,2014-09-02 17:30:00,
2014-09-02 13:31:00,79.8,74.9,29.32,South,178,0.0,0.0,85,0.00,,,0.00,105,WeatherCatV1.24B11,2014-09-02 17:31:00,
2014-09-02 13:32:00,79.8,74.5,29.32,South,178,0.0,0.0,84,0.00,,,0.00,102,WeatherCatV1.24B11,2014-09-02 17:32:00,
2014-09-02 13:33:00,79.8,74.5,29.32,South,178,0.0,0.0,84,0.00,,,0.00,102,WeatherCatV1.24B11,2014-09-02 17:33:00,
2014-09-02 13:35:00,79.9,74.3,29.32,South,178,0.0,0.0,83,0.00,,,0.00,86,WeatherCatV1.24B11,2014-09-02 17:35:00,
2014-09-02 13:36:00,80.0,74.4,29.32,South,178,0.0,0.0,83,0.00,,,0.00,91,WeatherCatV1.24B11,2014-09-02 17:36:00,
2014-09-02 13:37:00,80.1,74.8,29.31,South,178,0.0,0.0,84,0.00,,,0.00,95,WeatherCatV1.24B11,2014-09-02 17:37:00,
2014-09-02 13:38:00,80.1,74.8,29.31,South,178,0.0,0.0,84,0.00,,,0.00,95,WeatherCatV1.24B11,2014-09-02 17:38:00,
2014-09-02 13:39:00,80.2,74.2,29.31,South,178,0.0,0.0,82,0.00,,,0.00,93,WeatherCatV1.24B11,2014-09-02 17:39:00,
2014-09-02 13:40:00,80.2,74.2,29.31,South,178,0.0,0.0,82,0.00,,,0.00,70,WeatherCatV1.24B11,2014-09-02 17:40:00,
2014-09-02 13:41:00,80.3,74.3,29.31,South,178,0.0,0.0,82,0.00,,,0.00,98,WeatherCatV1.24B11,2014-09-02 17:41:00,
2014-09-02 13:42:00,80.4,74.4,29.31,South,178,0.0,0.0,82,0.00,,,0.00,97,WeatherCatV1.24B11,2014-09-02 17:42:00,
2014-09-02 13:44:00,80.4,74.4,29.31,South,178,0.0,0.0,82,0.00,,,0.00,91,WeatherCatV1.24B11,2014-09-02 17:44:00,
2014-09-02 13:45:00,80.5,74.8,29.30,South,178,0.0,0.0,83,0.00,,,0.00,91,WeatherCatV1.24B11,2014-09-02 17:45:00,
2014-09-02 13:46:00,80.5,74.1,29.30,South,182,0.0,0.0,81,0.00,,,0.00,86,WeatherCatV1.24B11,2014-09-02 17:46:00,
2014-09-02 13:47:00,80.6,73.5,29.30,South,182,0.0,0.0,79,0.00,,,0.00,84,WeatherCatV1.24B11,2014-09-02 17:47:00,
2014-09-02 13:48:00,80.6,73.5,29.30,South,182,0.0,0.0,79,0.00,,,0.00,84,WeatherCatV1.24B11,2014-09-02 17:48:00,
2014-09-02 13:49:00,80.6,73.8,29.30,South,182,0.0,0.0,80,0.00,,,0.00,81,WeatherCatV1.24B11,2014-09-02 17:49:00,
2014-09-02 13:51:00,80.8,74.8,29.30,South,182,0.0,0.0,82,0.00,,,0.00,81,WeatherCatV1.24B11,2014-09-02 17:51:00,
2014-09-02 13:52:00,80.9,74.9,29.30,South,182,0.0,0.0,82,0.00,,,0.00,79,WeatherCatV1.24B11,2014-09-02 17:52:00,
2014-09-02 13:53:00,80.9,73.4,29.30,South,182,0.0,0.0,78,0.00,,,0.00,79,WeatherCatV1.24B11,2014-09-02 17:53:00,
2014-09-02 13:54:00,80.9,73.8,29.30,South,182,0.0,0.0,79,0.00,,,0.00,79,WeatherCatV1.24B11,2014-09-02 17:54:00,
2014-09-02 13:56:00,81.1,74.3,29.30,South,182,0.0,0.0,80,0.00,,,0.00,77,WeatherCatV1.24B11,2014-09-02 17:56:00,
2014-09-02 13:58:00,81.1,73.9,29.30,South,182,0.0,0.0,79,0.00,,,0.00,76,WeatherCatV1.24B11,2014-09-02 17:58:00,
2014-09-02 13:59:00,81.1,73.6,29.30,South,182,0.0,0.0,78,0.00,,,0.00,72,WeatherCatV1.24B11,2014-09-02 17:59:00,
2014-09-02 14:00:00,81.2,73.7,29.30,SSW,197,0.0,0.0,78,0.00,,,0.00,70,WeatherCatV1.24B11,2014-09-02 18:00:00,
2014-09-02 14:01:00,81.2,73.7,29.30,SSW,197,0.0,0.0,78,0.00,,,0.00,72,WeatherCatV1.24B11,2014-09-02 18:01:00,
2014-09-02 14:02:00,81.2,72.1,29.30,SSW,197,0.0,0.0,74,0.00,,,0.00,72,WeatherCatV1.24B11,2014-09-02 18:02:00,
2014-09-02 14:03:00,81.3,72.2,29.30,SSW,197,0.0,0.0,74,0.00,,,0.00,74,WeatherCatV1.24B11,2014-09-02 18:03:00,
2014-09-02 14:04:00,81.3,73.0,29.30,SSW,197,0.0,0.0,76,0.00,,,0.00,74,WeatherCatV1.24B11,2014-09-02 18:04:00,
2014-09-02 14:06:00,81.4,73.5,29.30,SSW,197,0.0,0.0,77,0.00,,,0.00,74,WeatherCatV1.24B11,2014-09-02 18:06:00,
2014-09-02 14:08:00,81.5,73.6,29.30,SSW,197,0.0,0.0,77,0.00,,,0.00,76,WeatherCatV1.24B11,2014-09-02 18:08:00,
2014-09-02 14:09:00,81.5,74.0,29.30,SSW,197,0.0,0.0,78,0.00,,,0.00,76,WeatherCatV1.24B11,2014-09-02 18:09:00,
2014-09-02 14:11:00,81.6,73.3,29.30,SW,214,0.0,0.0,76,0.00,,,0.00,77,WeatherCatV1.24B11,2014-09-02 18:11:00,
2014-09-02 14:13:00,81.7,73.8,29.30,SSW,212,0.0,0.0,77,0.00,,,0.00,77,WeatherCatV1.24B11,2014-09-02 18:13:00,
2014-09-02 14:14:00,81.7,74.2,29.30,SSW,212,0.0,0.0,78,0.00,,,0.00,77,WeatherCatV1.24B11,2014-09-02 18:14:00,
2014-09-02 14:15:00,81.7,74.2,29.30,SSW,212,0.0,0.0,78,0.00,,,0.00,77,WeatherCatV1.24B11,2014-09-02 18:15:00,
2014-09-02 14:16:00,81.8,74.2,29.29,SSW,203,0.0,0.0,78,0.00,,,0.00,77,WeatherCatV1.24B11,2014-09-02 18:16:00,
2014-09-02 14:18:00,81.9,74.3,29.29,SSW,203,0.0,0.0,78,0.00,,,0.00,77,WeatherCatV1.24B11,2014-09-02 18:18:00,
2014-09-02 14:20:00,81.9,73.2,29.29,SSW,203,0.0,0.0,75,0.00,,,0.00,76,WeatherCatV1.24B11,2014-09-02 18:20:00,
2014-09-02 14:22:00,82.0,74.4,29.29,SSW,203,0.0,0.0,78,0.00,,,0.00,76,WeatherCatV1.24B11,2014-09-02 18:22:00,
2014-09-02 14:23:00,82.0,74.1,29.29,South,180,0.0,0.0,77,0.00,,,0.00,74,WeatherCatV1.24B11,2014-09-02 18:23:00,
2014-09-02 14:24:00,82.0,73.7,29.29,South,180,0.0,0.0,76,0.00,,,0.00,74,WeatherCatV1.24B11,2014-09-02 18:24:00,
2014-09-02 14:25:00,82.0,73.3,29.29,South,180,0.0,0.0,75,0.00,,,0.00,72,WeatherCatV1.24B11,2014-09-02 18:25:00,
2014-09-02 14:27:00,82.1,74.2,29.29,South,180,0.0,0.0,77,0.00,,,0.00,72,WeatherCatV1.24B11,2014-09-02 18:27:00,
2014-09-02 14:28:00,82.1,74.2,29.29,South,182,0.0,0.0,77,0.00,,,0.00,70,WeatherCatV1.24B11,2014-09-02 18:28:00,
2014-09-02 14:30:00,82.2,73.5,29.29,SSW,199,0.0,0.0,75,0.00,,,0.00,70,WeatherCatV1.24B11,2014-09-02 18:30:00,
2014-09-02 14:31:00,82.2,74.2,29.29,SSW,198,0.0,0.0,77,0.00,,,0.00,72,WeatherCatV1.24B11,2014-09-02 18:31:00,
2014-09-02 14:32:00,82.2,73.9,29.29,SSE,164,0.0,0.0,76,0.00,,,0.00,72,WeatherCatV1.24B11,2014-09-02 18:32:00,
2014-09-02 14:33:00,82.3,72.8,29.29,SSE,163,0.0,0.0,73,0.00,,,0.00,70,WeatherCatV1.24B11,2014-09-02 18:33:00,
2014-09-02 14:34:00,82.3,73.2,29.29,SSE,164,0.0,0.0,74,0.00,,,0.00,70,WeatherCatV1.24B11,2014-09-02 18:34:00,
2014-09-02 14:35:00,82.4,74.1,29.29,SSE,164,0.0,0.0,76,0.00,,,0.00,70,WeatherCatV1.24B11,2014-09-02 18:35:00,
2014-09-02 14:36:00,82.4,74.1,29.29,SSE,164,0.0,0.0,76,0.00,,,0.00,79,WeatherCatV1.24B11,2014-09-02 18:36:00,
2014-09-02 14:37:00,82.5,73.3,29.29,SSE,164,0.0,0.0,74,0.00,,,0.00,83,WeatherCatV1.24B11,2014-09-02 18:37:00,
2014-09-02 14:39:00,82.5,73.3,29.29,SSE,164,0.0,0.0,74,0.00,,,0.00,74,WeatherCatV1.24B11,2014-09-02 18:39:00,
2014-09-02 14:40:00,82.5,74.5,29.29,SSE,164,0.0,0.0,77,0.00,,,0.00,77,WeatherCatV1.24B11,2014-09-02 18:40:00,
2014-09-02 14:41:00,82.6,73.8,29.29,SSE,164,0.0,0.0,75,0.00,,,0.00,91,WeatherCatV1.24B11,2014-09-02 18:41:00,
2014-09-02 14:42:00,82.6,73.4,29.29,SSE,165,0.0,0.0,74,0.00,,,0.00,109,WeatherCatV1.24B11,2014-09-02 18:42:00,
2014-09-02 14:44:00,82.7,73.1,29.29,SSE,165,0.0,0.0,73,0.00,,,0.00,91,WeatherCatV1.24B11,2014-09-02 18:44:00,
2014-09-02 14:45:00,82.7,73.1,29.29,SSE,165,0.0,0.0,73,0.00,,,0.00,109,WeatherCatV1.24B11,2014-09-02 18:45:00,
2014-09-02 14:46:00,82.7,73.5,29.29,SSE,165,0.0,0.0,74,0.00,,,0.00,67,WeatherCatV1.24B11,2014-09-02 18:46:00,
2014-09-02 14:47:00,82.8,74.0,29.29,SSE,165,0.0,0.0,75,0.00,,,0.00,47,WeatherCatV1.24B11,2014-09-02 18:47:00,
2014-09-02 14:48:00,82.8,74.0,29.29,SSE,165,0.0,0.0,75,0.00,,,0.00,42,WeatherCatV1.24B11,2014-09-02 18:48:00,
2014-09-02 14:49:00,82.8,73.6,29.29,SSE,165,0.0,0.0,74,0.00,,,0.00,42,WeatherCatV1.24B11,2014-09-02 18:49:00,
2014-09-02 14:50:00,82.8,73.6,29.29,SSE,165,0.0,0.0,74,0.00,,,0.00,37,WeatherCatV1.24B11,2014-09-02 18:50:00,
2014-09-02 14:52:00,82.8,74.0,29.29,SSE,165,0.0,0.0,75,0.00,,,0.00,33,WeatherCatV1.24B11,2014-09-02 18:52:00,
2014-09-02 14:54:00,82.8,73.6,29.29,SSE,165,0.0,0.0,74,0.00,,,0.00,40,WeatherCatV1.24B11,2014-09-02 18:54:00,
2014-09-02 14:55:00,82.7,73.9,29.29,SSE,165,0.0,0.0,75,0.00,,,0.00,40,WeatherCatV1.24B11,2014-09-02 18:55:00,
2014-09-02 14:56:00,82.7,73.9,29.29,SSE,165,0.0,0.0,75,0.00,,,0.00,42,WeatherCatV1.24B11,2014-09-02 18:56:00,
2014-09-02 14:57:00,82.7,73.9,29.29,SSE,165,0.0,0.0,75,0.00,,,0.00,42,WeatherCatV1.24B11,2014-09-02 18:57:00,
2014-09-02 14:58:00,82.7,73.9,29.29,SSE,165,0.0,0.0,75,0.00,,,0.00,42,WeatherCatV1.24B11,2014-09-02 18:58:00,
2014-09-02 15:00:00,82.7,74.3,29.29,SSE,165,0.0,0.0,76,0.00,,,0.00,39,WeatherCatV1.24B11,2014-09-02 19:00:00,
2014-09-02 15:01:00,82.7,74.3,29.29,SSE,165,0.0,0.0,76,0.00,,,0.00,40,WeatherCatV1.24B11,2014-09-02 19:01:00,
2014-09-02 15:03:00,82.6,74.2,29.29,SSE,165,0.0,0.0,76,0.00,,,0.00,40,WeatherCatV1.24B11,2014-09-02 19:03:00,
2014-09-02 15:04:00,82.6,74.2,29.29,SSE,165,0.0,0.0,76,0.00,,,0.00,40,WeatherCatV1.24B11,2014-09-02 19:04:00,
2014-09-02 15:05:00,82.6,74.6,29.29,SSE,165,0.0,0.0,77,0.00,,,0.00,40,WeatherCatV1.24B11,2014-09-02 19:05:00,
2014-09-02 15:06:00,82.5,74.5,29.28,SSE,165,0.0,0.0,77,0.00,,,0.00,40,WeatherCatV1.24B11,2014-09-02 19:06:00,
2014-09-02 15:07:00,82.5,74.5,29.29,SSE,165,0.0,0.0,77,0.00,,,0.00,40,WeatherCatV1.24B11,2014-09-02 19:07:00,
2014-09-02 15:08:00,82.5,74.2,29.29,SSE,165,0.0,0.0,76,0.00,,,0.00,42,WeatherCatV1.24B11,2014-09-02 19:08:00,
2014-09-02 15:09:00,82.4,74.4,29.29,SSE,165,0.0,0.0,77,0.00,,,0.00,46,WeatherCatV1.24B11,2014-09-02 19:09:00,
2014-09-02 15:10:00,82.4,74.4,29.29,SSE,165,0.0,0.0,77,0.00,,,0.00,49,WeatherCatV1.24B11,2014-09-02 19:10:00,
2014-09-02 15:11:00,82.3,74.3,29.29,SSE,165,0.0,0.0,77,0.00,,,0.00,100,WeatherCatV1.24B11,2014-09-02 19:11:00,
2014-09-02 15:12:00,82.3,74.3,29.29,SSE,165,0.0,0.0,77,0.00,,,0.00,72,WeatherCatV1.24B11,2014-09-02 19:12:00,
2014-09-02 15:13:00,82.2,74.2,29.28,SSE,165,0.0,0.0,77,0.00,,,0.00,67,WeatherCatV1.24B11,2014-09-02 19:13:00,
2014-09-02 15:15:00,82.1,74.2,29.28,SSE,165,0.0,0.0,77,0.00,,,0.00,60,WeatherCatV1.24B11,2014-09-02 19:15:00,
2014-09-02 15:16:00,82.1,74.2,29.29,SSE,165,0.0,0.0,77,0.00,,,0.00,54,WeatherCatV1.24B11,2014-09-02 19:16:00,
2014-09-02 15:17:00,82.1,74.2,29.29,SSE,165,0.0,0.0,77,0.00,,,0.00,54,WeatherCatV1.24B11,2014-09-02 19:17:00,
2014-09-02 15:18:00,82.0,74.1,29.29,SSE,165,0.0,0.0,77,0.00,,,0.00,54,WeatherCatV1.24B11,2014-09-02 19:18:00,
2014-09-02 15:20:00,82.0,74.4,29.29,SSE,165,0.0,0.0,78,0.00,,,0.00,54,WeatherCatV1.24B11,2014-09-02 19:20:00,
2014-09-02 15:22:00,81.9,74.3,29.28,SSE,165,0.0,0.0,78,0.00,,,0.00,58,WeatherCatV1.24B11,2014-09-02 19:22:00,
2014-09-02 15:23:00,81.8,74.6,29.29,SSE,165,0.0,0.0,79,0.00,,,0.00,69,WeatherCatV1.24B11,2014-09-02 19:23:00,
2014-09-02 15:25:00,81.7,74.5,29.28,SSE,165,0.0,0.0,79,0.00,,,0.00,149,WeatherCatV1.24B11,2014-09-02 19:25:00,
2014-09-02 15:26:00,81.7,74.5,29.28,SSE,165,0.0,0.0,79,0.00,,,0.00,172,WeatherCatV1.24B11,2014-09-02 19:26:00,
2014-09-02 15:27:00,81.7,74.5,29.28,SSE,165,0.0,0.0,79,0.00,,,0.00,181,WeatherCatV1.24B11,2014-09-02 19:27:00,
2014-09-02 15:28:00,81.6,74.4,29.28,SSE,165,0.0,0.0,79,0.00,,,0.00,190,WeatherCatV1.24B11,2014-09-02 19:28:00,
2014-09-02 15:29:00,81.6,74.4,29.28,SSE,165,0.0,0.0,79,0.00,,,0.00,100,WeatherCatV1.24B11,2014-09-02 19:29:00,
2014-09-02 15:30:00,81.5,74.3,29.28,SSE,165,0.0,0.0,79,0.00,,,0.00,116,WeatherCatV1.24B11,2014-09-02 19:30:00,
2014-09-02 15:31:00,81.5,74.3,29.28,SSE,165,0.0,0.0,79,0.00,,,0.00,116,WeatherCatV1.24B11,2014-09-02 19:31:00,
2014-09-02 15:32:00,81.4,74.6,29.28,SSE,165,0.0,0.0,80,0.00,,,0.00,67,WeatherCatV1.24B11,2014-09-02 19:32:00,
2014-09-02 15:33:00,81.4,74.2,29.28,South,173,0.0,0.0,79,0.00,,,0.00,67,WeatherCatV1.24B11,2014-09-02 19:33:00,
2014-09-02 15:34:00,81.3,74.1,29.28,South,173,0.0,0.0,79,0.00,,,0.00,95,WeatherCatV1.24B11,2014-09-02 19:34:00,
2014-09-02 15:35:00,81.2,74.1,29.28,South,173,0.0,0.0,79,0.00,,,0.00,102,WeatherCatV1.24B11,2014-09-02 19:35:00,
2014-09-02 15:36:00,81.2,74.1,29.28,South,173,0.0,0.0,79,0.00,,,0.00,102,WeatherCatV1.24B11,2014-09-02 19:36:00,
2014-09-02 15:37:00,81.2,74.4,29.28,South,173,0.0,0.0,80,0.00,,,0.00,118,WeatherCatV1.24B11,2014-09-02 19:37:00,
2014-09-02 15:39:00,81.1,73.9,29.28,SSW,210,0.0,0.0,79,0.00,,,0.00,503,WeatherCatV1.24B11,2014-09-02 19:39:00,
2014-09-02 15:40:00,81.1,74.3,29.28,SSW,210,0.0,0.0,80,0.00,,,0.00,480,WeatherCatV1.24B11,2014-09-02 19:40:00,
2014-09-02 15:41:00,81.1,74.3,29.28,SSW,210,0.0,0.0,80,0.00,,,0.00,504,WeatherCatV1.24B11,2014-09-02 19:41:00,
2014-09-02 15:42:00,81.1,74.3,29.28,SSW,209,0.0,0.0,80,0.00,,,0.00,501,WeatherCatV1.24B11,2014-09-02 19:42:00,
2014-09-02 15:43:00,81.1,74.3,29.28,SSW,209,0.0,0.0,80,0.00,,,0.00,504,WeatherCatV1.24B11,2014-09-02 19:43:00,
2014-09-02 15:44:00,81.1,74.3,29.28,SSW,209,0.0,0.0,80,0.00,,,0.00,497,WeatherCatV1.24B11,2014-09-02 19:44:00,
2014-09-02 15:45:00,81.1,74.7,29.28,SSW,209,0.0,0.0,81,0.00,,,0.00,503,WeatherCatV1.24B11,2014-09-02 19:45:00,
2014-09-02 15:46:00,81.1,74.7,29.27,SSW,209,0.0,0.0,81,0.00,,,0.00,504,WeatherCatV1.24B11,2014-09-02 19:46:00,
2014-09-02 15:47:00,81.1,74.7,29.27,SSW,209,0.0,0.0,81,0.00,,,0.00,489,WeatherCatV1.24B11,2014-09-02 19:47:00,
2014-09-02 15:49:00,81.1,75.1,29.27,SSW,209,0.0,0.0,82,0.00,,,0.00,504,WeatherCatV1.24B11,2014-09-02 19:49:00,
2014-09-02 15:51:00,81.1,75.1,29.27,SSW,204,0.0,0.0,82,0.00,,,0.00,501,WeatherCatV1.24B11,2014-09-02 19:51:00,
2014-09-02 15:53:00,81.2,74.8,29.27,SSW,204,0.0,0.0,81,0.00,,,0.00,476,WeatherCatV1.24B11,2014-09-02 19:53:00,
2014-09-02 15:54:00,81.1,74.3,29.27,SSW,204,0.0,0.0,80,0.00,,,0.00,432,WeatherCatV1.24B11,2014-09-02 19:54:00,
2014-09-02 15:56:00,81.1,74.3,29.27,SSW,204,0.0,0.0,80,0.00,,,0.00,97,WeatherCatV1.24B11,2014-09-02 19:56:00,
2014-09-02 15:57:00,81.1,74.3,29.27,SSW,204,0.0,0.0,80,0.00,,,0.00,156,WeatherCatV1.24B11,2014-09-02 19:57:00,
2014-09-02 15:58:00,81.1,74.3,29.27,SSW,204,0.0,0.0,80,0.00,,,0.00,204,WeatherCatV1.24B11,2014-09-02 19:58:00,
2014-09-02 15:59:00,81.1,74.3,29.27,SSE,163,0.0,0.0,80,0.00,,,0.00,227,WeatherCatV1.24B11,2014-09-02 19:59:00,
2014-09-02 16:01:00,81.1,74.3,29.27,SSE,163,0.0,0.0,80,0.00,,,0.00,58,WeatherCatV1.24B11,2014-09-02 20:01:00,
2014-09-02 16:02:00,81.1,74.7,29.27,SSE,163,0.0,0.0,81,0.00,,,0.00,58,WeatherCatV1.24B11,2014-09-02 20:02:00,
2014-09-02 16:03:00,81.1,73.9,29.27,SSE,163,0.0,0.0,79,0.00,,,0.00,62,WeatherCatV1.24B11,2014-09-02 20:03:00,
2014-09-02 16:05:00,81.1,74.3,29.27,SSE,163,0.0,0.0,80,0.00,,,0.00,63,WeatherCatV1.24B11,2014-09-02 20:05:00,
2014-09-02 16:06:00,81.2,74.8,29.27,SSE,163,0.0,0.0,81,0.00,,,0.00,65,WeatherCatV1.24B11,2014-09-02 20:06:00,
2014-09-02 16:07:00,81.2,74.8,29.27,SSE,163,0.0,0.0,81,0.00,,,0.00,62,WeatherCatV1.24B11,2014-09-02 20:07:00,
2014-09-02 16:08:00,81.2,75.2,29.27,SSE,163,0.0,0.0,82,0.00,,,0.00,60,WeatherCatV1.24B11,2014-09-02 20:08:00,
2014-09-02 16:10:00,81.2,74.8,29.27,SSE,164,0.0,0.0,81,0.00,,,0.00,54,WeatherCatV1.24B11,2014-09-02 20:10:00,
2014-09-02 16:11:00,81.1,73.9,29.27,SSW,198,0.0,0.0,79,0.00,,,0.00,49,WeatherCatV1.24B11,2014-09-02 20:11:00,
2014-09-02 16:13:00,81.2,74.1,29.27,SSW,197,0.0,0.0,79,0.00,,,0.00,49,WeatherCatV1.24B11,2014-09-02 20:13:00,
2014-09-02 16:14:00,81.1,74.3,29.27,SSW,197,0.0,0.0,80,0.00,,,0.00,49,WeatherCatV1.24B11,2014-09-02 20:14:00,
2014-09-02 16:15:00,81.1,73.9,29.27,SSW,197,0.0,0.0,79,0.00,,,0.00,47,WeatherCatV1.24B11,2014-09-02 20:15:00,
2014-09-02 16:17:00,81.1,73.6,29.27,SSW,192,0.0,0.0,78,0.00,,,0.00,46,WeatherCatV1.24B11,2014-09-02 20:17:00,
2014-09-02 16:18:00,81.1,74.3,29.27,SSW,192,0.0,0.0,80,0.00,,,0.00,46,WeatherCatV1.24B11,2014-09-02 20:18:00,
2014-09-02 16:19:00,81.1,73.9,29.27,SSW,192,0.0,0.0,79,0.00,,,0.00,44,WeatherCatV1.24B11,2014-09-02 20:19:00,
2014-09-02 16:20:00,81.1,73.9,29.27,SSW,192,0.0,0.0,79,0.00,,,0.00,42,WeatherCatV1.24B11,2014-09-02 20:20:00,
2014-09-02 16:22:00,81.0,73.8,29.26,SSW,192,0.0,0.0,79,0.00,,,0.00,40,WeatherCatV1.24B11,2014-09-02 20:22:00,
2014-09-02 16:23:00,81.0,73.8,29.27,SSW,192,0.0,0.0,79,0.00,,,0.00,40,WeatherCatV1.24B11,2014-09-02 20:23:00,
2014-09-02 16:24:00,81.0,73.5,29.27,SSW,192,0.0,0.0,78,0.00,,,0.00,40,WeatherCatV1.24B11,2014-09-02 20:24:00,
2014-09-02 16:25:00,81.0,73.5,29.27,SSW,211,0.0,0.0,78,0.00,,,0.00,40,WeatherCatV1.24B11,2014-09-02 20:25:00,
2014-09-02 16:27:00,80.9,73.8,29.26,SSW,211,0.0,0.0,79,0.00,,,0.00,39,WeatherCatV1.24B11,2014-09-02 20:27:00,
2014-09-02 16:28:00,80.9,74.1,29.26,SSW,210,0.0,0.0,80,0.00,,,0.00,39,WeatherCatV1.24B11,2014-09-02 20:28:00,
2014-09-02 16:29:00,80.9,73.4,29.26,SSW,194,0.0,0.0,78,0.00,,,0.00,37,WeatherCatV1.24B11,2014-09-02 20:29:00,
2014-09-02 16:30:00,80.9,73.8,29.26,SSW,194,0.0,0.0,79,0.00,,,0.00,37,WeatherCatV1.24B11,2014-09-02 20:30:00,
2014-09-02 16:32:00,80.8,73.7,29.26,SSW,194,0.0,0.0,79,0.00,,,0.00,37,WeatherCatV1.24B11,2014-09-02 20:32:00,
2014-09-02 16:33:00,80.8,73.7,29.26,SSW,194,0.0,0.0,79,0.00,,,0.00,37,WeatherCatV1.24B11,2014-09-02 20:33:00,
2014-09-02 16:34:00,80.7,73.6,29.26,SSW,194,0.0,0.0,79,0.00,,,0.00,37,WeatherCatV1.24B11,2014-09-02 20:34:00,
2014-09-02 16:35:00,80.7,73.6,29.27,SSW,194,0.0,0.0,79,0.00,,,0.00,37,WeatherCatV1.24B11,2014-09-02 20:35:00,
2014-09-02 16:37:00,80.7,73.9,29.27,SSW,194,0.0,0.0,80,0.00,,,0.00,40,WeatherCatV1.24B11,2014-09-02 20:37:00,
2014-09-02 16:38:00,80.7,73.9,29.26,SSW,194,0.0,0.0,80,0.00,,,0.00,141,WeatherCatV1.24B11,2014-09-02 20:38:00,
2014-09-02 16:39:00,80.6,73.8,29.26,SSW,194,0.0,0.0,80,0.00,,,0.00,142,WeatherCatV1.24B11,2014-09-02 20:39:00,
2014-09-02 16:40:00,80.6,73.8,29.26,SSW,194,0.0,0.0,80,0.00,,,0.00,142,WeatherCatV1.24B11,2014-09-02 20:40:00,
2014-09-02 16:42:00,80.6,73.8,29.26,SSW,196,0.0,0.0,80,0.00,,,0.00,91,WeatherCatV1.24B11,2014-09-02 20:42:00,
2014-09-02 16:44:00,80.6,73.5,29.27,SSW,196,0.0,0.0,79,0.00,,,0.00,35,WeatherCatV1.24B11,2014-09-02 20:44:00,
2014-09-02 16:45:00,80.5,73.7,29.26,SSW,196,0.0,0.0,80,0.00,,,0.00,35,WeatherCatV1.24B11,2014-09-02 20:45:00,
2014-09-02 16:47:00,80.5,74.1,29.26,SSW,196,0.0,0.0,81,0.00,,,0.00,144,WeatherCatV1.24B11,2014-09-02 20:47:00,
2014-09-02 16:49:00,80.5,73.7,29.26,South,183,0.0,0.0,80,0.00,,,0.00,51,WeatherCatV1.24B11,2014-09-02 20:49:00,
2014-09-02 16:50:00,80.5,73.7,29.26,South,183,0.0,0.0,80,0.00,,,0.00,51,WeatherCatV1.24B11,2014-09-02 20:50:00,
2014-09-02 16:52:00,80.4,74.0,29.26,South,183,0.0,0.0,81,0.00,,,0.00,178,WeatherCatV1.24B11,2014-09-02 20:52:00,
2014-09-02 16:54:00,80.4,74.0,29.26,South,183,0.0,0.0,81,0.00,,,0.00,118,WeatherCatV1.24B11,2014-09-02 20:54:00,
2014-09-02 16:55:00,80.4,74.0,29.26,South,183,0.0,0.0,81,0.00,,,0.00,86,WeatherCatV1.24B11,2014-09-02 20:55:00,
2014-09-02 16:56:00,80.3,73.6,29.26,South,183,0.0,0.0,80,0.00,,,0.00,86,WeatherCatV1.24B11,2014-09-02 20:56:00,
2014-09-02 16:57:00,80.3,73.9,29.26,South,183,0.0,0.0,81,0.00,,,0.00,97,WeatherCatV1.24B11,2014-09-02 20:57:00,
2014-09-02 16:59:00,80.3,74.3,29.26,South,183,0.0,0.0,82,0.00,,,0.00,185,WeatherCatV1.24B11,2014-09-02 20:59:00,
2014-09-02 17:00:00,80.3,73.9,29.26,South,183,0.0,0.0,81,0.00,,,0.00,172,WeatherCatV1.24B11,2014-09-02 21:00:00,
2014-09-02 17:01:00,80.3,74.3,29.26,South,183,0.0,0.0,82,0.00,,,0.00,172,WeatherCatV1.24B11,2014-09-02 21:01:00,
2014-09-02 17:02:00,80.2,74.2,29.26,South,183,0.0,0.0,82,0.00,,,0.00,53,WeatherCatV1.24B11,2014-09-02 21:02:00,
2014-09-02 17:05:00,80.2,73.8,29.26,South,183,0.0,0.0,81,0.00,,,0.00,200,WeatherCatV1.24B11,2014-09-02 21:05:00,
2014-09-02 17:06:00,80.2,74.2,29.26,South,183,0.0,0.0,82,0.00,,,0.00,95,WeatherCatV1.24B11,2014-09-02 21:06:00,
2014-09-02 17:07:00,80.2,74.2,29.26,South,183,0.0,0.0,82,0.00,,,0.00,40,WeatherCatV1.24B11,2014-09-02 21:07:00,
2014-09-02 17:10:00,80.1,74.1,29.26,South,183,0.0,0.0,82,0.00,,,0.00,46,WeatherCatV1.24B11,2014-09-02 21:10:00,
2014-09-02 17:11:00,80.1,74.1,29.26,South,183,0.0,0.0,82,0.00,,,0.00,46,WeatherCatV1.24B11,2014-09-02 21:11:00,
2014-09-02 17:12:00,80.0,74.4,29.26,South,183,0.0,0.0,83,0.00,,,0.00,39,WeatherCatV1.24B11,2014-09-02 21:12:00,
2014-09-02 17:15:00,80.0,74.0,29.26,South,183,0.0,0.0,82,0.00,,,0.00,28,WeatherCatV1.24B11,2014-09-02 21:15:00,
2014-09-02 17:16:00,80.0,74.0,29.26,South,183,0.0,0.0,82,0.00,,,0.00,28,WeatherCatV1.24B11,2014-09-02 21:16:00,
2014-09-02 17:17:00,79.9,74.3,29.26,South,183,0.0,0.0,83,0.00,,,0.00,37,WeatherCatV1.24B11,2014-09-02 21:17:00,
2014-09-02 17:21:00,79.8,74.2,29.26,South,183,0.0,0.0,83,0.00,,,0.00,44,WeatherCatV1.24B11,2014-09-02 21:21:00,
2014-09-02 17:23:00,79.8,73.8,29.26,South,183,0.0,0.0,82,0.00,,,0.00,28,WeatherCatV1.24B11,2014-09-02 21:23:00,
2014-09-02 17:26:00,79.7,74.4,29.26,South,183,0.0,0.0,84,0.00,,,0.00,26,WeatherCatV1.24B11,2014-09-02 21:26:00,
2014-09-02 17:28:00,79.6,74.3,29.26,South,183,0.0,0.0,84,0.00,,,0.00,30,WeatherCatV1.24B11,2014-09-02 21:28:00,
2014-09-02 17:31:00,79.6,74.3,29.26,South,183,0.0,0.0,84,0.00,,,0.00,25,WeatherCatV1.24B11,2014-09-02 21:31:00,
2014-09-02 17:32:00,79.6,74.3,29.26,South,183,0.0,0.0,84,0.00,,,0.00,23,WeatherCatV1.24B11,2014-09-02 21:32:00,
2014-09-02 17:33:00,79.5,74.2,29.26,South,183,0.0,0.0,84,0.00,,,0.00,23,WeatherCatV1.24B11,2014-09-02 21:33:00,
2014-09-02 17:37:00,79.4,73.8,29.26,South,183,0.0,0.0,83,0.00,,,0.00,19,WeatherCatV1.24B11,2014-09-02 21:37:00,
2014-09-02 17:38:00,79.4,74.1,29.26,South,183,0.0,0.0,84,0.00,,,0.00,18,WeatherCatV1.24B11,2014-09-02 21:38:00,
2014-09-02 17:42:00,79.3,74.0,29.26,South,183,0.0,0.0,84,0.00,,,0.00,16,WeatherCatV1.24B11,2014-09-02 21:42:00,
2014-09-02 17:43:00,79.2,73.9,29.26,South,183,0.0,0.0,84,0.00,,,0.00,16,WeatherCatV1.24B11,2014-09-02 21:43:00,
2014-09-02 17:47:00,79.1,73.5,29.25,South,183,0.0,0.0,83,0.00,,,0.00,14,WeatherCatV1.24B11,2014-09-02 21:47:00,
2014-09-02 17:49:00,79.0,73.4,29.25,South,183,0.0,0.0,83,0.00,,,0.00,14,WeatherCatV1.24B11,2014-09-02 21:49:00,
2014-09-02 17:52:00,79.0,73.7,29.25,South,183,0.0,0.0,84,0.00,,,0.00,14,WeatherCatV1.24B11,2014-09-02 21:52:00,
2014-09-02 17:53:00,78.9,73.6,29.25,South,183,0.0,0.0,84,0.00,,,0.00,14,WeatherCatV1.24B11,2014-09-02 21:53:00,
2014-09-02 17:54:00,78.9,73.6,29.25,South,183,0.0,0.0,84,0.00,,,0.00,14,WeatherCatV1.24B11,2014-09-02 21:54:00,
2014-09-02 17:57:00,78.8,73.5,29.25,South,183,0.0,0.0,84,0.00,,,0.00,12,WeatherCatV1.24B11,2014-09-02 21:57:00,
2014-09-02 17:58:00,78.8,73.5,29.25,South,183,0.0,0.0,84,0.00,,,0.00,12,WeatherCatV1.24B11,2014-09-02 21:58:00,
2014-09-02 17:59:00,78.8,73.5,29.25,South,183,0.0,0.0,84,0.00,,,0.00,12,WeatherCatV1.24B11,2014-09-02 21:59:00,
2014-09-02 18:02:00,78.7,73.8,29.25,South,183,0.0,0.0,85,0.00,,,0.00,12,WeatherCatV1.24B11,2014-09-02 22:02:00,
2014-09-02 18:03:00,78.7,73.8,29.25,South,183,0.0,0.0,85,0.00,,,0.00,12,WeatherCatV1.24B11,2014-09-02 22:03:00,
2014-09-02 18:04:00,78.7,73.8,29.25,South,183,0.0,0.0,85,0.00,,,0.00,11,WeatherCatV1.24B11,2014-09-02 22:04:00,
2014-09-02 18:07:00,78.7,73.8,29.25,South,183,0.0,0.0,85,0.00,,,0.00,11,WeatherCatV1.24B11,2014-09-02 22:07:00,
2014-09-02 18:08:00,78.7,73.8,29.25,South,183,0.0,0.0,85,0.00,,,0.00,11,WeatherCatV1.24B11,2014-09-02 22:08:00,
2014-09-02 18:09:00,78.6,73.7,29.25,South,183,0.0,0.0,85,0.00,,,0.00,11,WeatherCatV1.24B11,2014-09-02 22:09:00,
2014-09-02 18:13:00,78.5,73.6,29.25,South,183,0.0,0.0,85,0.00,,,0.00,11,WeatherCatV1.24B11,2014-09-02 22:13:00,
2014-09-02 18:14:00,78.4,73.5,29.25,South,183,0.0,0.0,85,0.00,,,0.00,9,WeatherCatV1.24B11,2014-09-02 22:14:00,
2014-09-02 18:18:00,78.3,73.8,29.25,South,183,0.0,0.0,86,0.00,,,0.00,9,WeatherCatV1.24B11,2014-09-02 22:18:00,
2014-09-02 18:19:00,78.3,73.8,29.25,South,183,0.0,0.0,86,0.00,,,0.00,9,WeatherCatV1.24B11,2014-09-02 22:19:00,
2014-09-02 18:23:00,78.2,73.7,29.25,South,183,0.0,0.0,86,0.00,,,0.00,9,WeatherCatV1.24B11,2014-09-02 22:23:00,
2014-09-02 18:24:00,78.1,73.6,29.25,South,183,0.0,0.0,86,0.00,,,0.00,9,WeatherCatV1.24B11,2014-09-02 22:24:00,
2014-09-02 18:25:00,78.1,73.6,29.25,South,183,0.0,0.0,86,0.00,,,0.00,9,WeatherCatV1.24B11,2014-09-02 22:25:00,
2014-09-02 18:29:00,78.0,73.5,29.25,South,183,0.0,0.0,86,0.00,,,0.00,7,WeatherCatV1.24B11,2014-09-02 22:29:00,
2014-09-02 18:30:00,77.9,73.4,29.25,South,183,0.0,0.0,86,0.00,,,0.00,7,WeatherCatV1.24B11,2014-09-02 22:30:00,
2014-09-02 18:33:00,77.8,73.3,29.25,South,183,0.0,0.0,86,0.00,,,0.00,7,WeatherCatV1.24B11,2014-09-02 22:33:00,
2014-09-02 18:34:00,77.8,73.3,29.25,South,183,0.0,0.0,86,0.00,,,0.00,5,WeatherCatV1.24B11,2014-09-02 22:34:00,
2014-09-02 18:35:00,77.8,73.3,29.25,South,183,0.0,0.0,86,0.00,,,0.00,5,WeatherCatV1.24B11,2014-09-02 22:35:00,
2014-09-02 18:38:00,77.6,73.1,29.25,South,183,0.0,0.0,86,0.00,,,0.00,0,WeatherCatV1.24B11,2014-09-02 22:38:00,
2014-09-02 18:39:00,77.6,73.1,29.25,South,183,0.0,0.0,86,0.00,,,0.00,0,WeatherCatV1.24B11,2014-09-02 22:39:00,
2014-09-02 18:40:00,77.6,73.1,29.25,South,183,0.0,0.0,86,0.00,,,0.00,0,WeatherCatV1.24B11,2014-09-02 22:40:00,
2014-09-02 18:41:00,77.6,73.4,29.25,South,183,0.0,0.0,87,0.00,,,0.00,0,WeatherCatV1.24B11,2014-09-02 22:41:00,
2014-09-02 18:44:00,77.4,73.2,29.25,South,183,0.0,0.0,87,0.00,,,0.00,0,WeatherCatV1.24B11,2014-09-02 22:44:00,
2014-09-02 18:45:00,77.4,73.2,29.24,South,183,0.0,0.0,87,0.00,,,0.00,0,WeatherCatV1.24B11,2014-09-02 22:45:00,
2014-09-02 18:46:00,77.4,72.9,29.25,South,183,0.0,0.0,86,0.00,,,0.00,0,WeatherCatV1.24B11,2014-09-02 22:46:00,
2014-09-02 18:49:00,77.3,72.8,29.25,South,183,0.0,0.0,86,0.00,,,0.00,0,WeatherCatV1.24B11,2014-09-02 22:49:00,
2014-09-02 18:50:00,77.2,72.7,29.25,South,183,0.0,0.0,86,0.00,,,0.00,0,WeatherCatV1.24B11,2014-09-02 22:50:00,
2014-09-02 18:51:00,77.2,72.7,29.24,South,183,0.0,0.0,86,0.00,,,0.00,0,WeatherCatV1.24B11,2014-09-02 22:51:00,
2014-09-02 18:54:00,77.0,72.8,29.25,South,183,0.0,0.0,87,0.00,,,0.00,0,WeatherCatV1.24B11,2014-09-02 22:54:00,
2014-09-02 18:55:00,77.0,72.8,29.25,South,183,0.0,0.0,87,0.00,,,0.00,0,WeatherCatV1.24B11,2014-09-02 22:55:00,
2014-09-02 18:56:00,77.0,72.8,29.25,South,183,0.0,0.0,87,0.00,,,0.00,0,WeatherCatV1.24B11,2014-09-02 22:56:00,
2014-09-02 18:57:00,76.9,72.7,29.24,South,183,0.0,0.0,87,0.00,,,0.00,0,WeatherCatV1.24B11,2014-09-02 22:57:00,
2014-09-02 19:00:00,76.8,72.6,29.24,South,183,0.0,0.0,87,0.00,,,0.00,0,WeatherCatV1.24B11,2014-09-02 23:00:00,
2014-09-02 19:01:00,76.8,72.6,29.24,South,183,0.0,0.0,87,0.00,,,0.00,0,WeatherCatV1.24B11,2014-09-02 23:01:00,
2014-09-02 19:02:00,76.7,72.5,29.24,South,183,0.0,0.0,87,0.00,,,0.00,0,WeatherCatV1.24B11,2014-09-02 23:02:00,
2014-09-02 19:04:00,76.6,72.4,29.24,South,183,0.0,0.0,87,0.00,,,0.00,0,WeatherCatV1.24B11,2014-09-02 23:04:00,
2014-09-02 19:05:00,76.6,72.4,29.24,South,183,0.0,0.0,87,0.00,,,0.00,0,WeatherCatV1.24B11,2014-09-02 23:05:00,
2014-09-02 19:06:00,76.5,72.7,29.24,South,183,0.0,0.0,88,0.00,,,0.00,0,WeatherCatV1.24B11,2014-09-02 23:06:00,
2014-09-02 19:07:00,76.5,72.7,29.24,South,183,0.0,0.0,88,0.00,,,0.00,0,WeatherCatV1.24B11,2014-09-02 23:07:00,
2014-09-02 19:09:00,76.4,72.2,29.25,South,183,0.0,0.0,87,0.00,,,0.00,0,WeatherCatV1.24B11,2014-09-02 23:09:00,
2014-09-02 19:10:00,76.4,72.6,29.25,South,183,0.0,0.0,88,0.00,,,0.00,0,WeatherCatV1.24B11,2014-09-02 23:10:00,
2014-09-02 19:11:00,76.2,72.4,29.25,South,183,0.0,0.0,88,0.00,,,0.00,0,WeatherCatV1.24B11,2014-09-02 23:11:00,
2014-09-02 19:12:00,76.2,72.4,29.25,South,183,0.0,0.0,88,0.00,,,0.00,0,WeatherCatV1.24B11,2014-09-02 23:12:00,
2014-09-02 19:13:00,76.2,72.4,29.25,South,183,0.0,0.0,88,0.00,,,0.00,0,WeatherCatV1.24B11,2014-09-02 23:13:00,
2014-09-02 19:14:00,76.2,72.4,29.25,South,183,0.0,0.0,88,0.00,,,0.00,0,WeatherCatV1.24B11,2014-09-02 23:14:00,
2014-09-02 19:15:00,76.1,72.3,29.25,South,183,0.0,0.0,88,0.00,,,0.00,0,WeatherCatV1.24B11,2014-09-02 23:15:00,
2014-09-02 19:17:00,76.0,72.2,29.25,South,183,0.0,0.0,88,0.00,,,0.00,0,WeatherCatV1.24B11,2014-09-02 23:17:00,
2014-09-02 19:18:00,76.0,72.2,29.25,South,183,0.0,0.0,88,0.00,,,0.00,0,WeatherCatV1.24B11,2014-09-02 23:18:00,
2014-09-02 19:19:00,75.9,72.4,29.25,South,183,0.0,0.0,89,0.00,,,0.00,0,WeatherCatV1.24B11,2014-09-02 23:19:00,
2014-09-02 19:20:00,75.8,72.3,29.25,South,183,0.0,0.0,89,0.00,,,0.00,0,WeatherCatV1.24B11,2014-09-02 23:20:00,
2014-09-02 19:22:00,75.7,72.2,29.25,South,183,0.0,0.0,89,0.00,,,0.00,0,WeatherCatV1.24B11,2014-09-02 23:22:00,
2014-09-02 19:23:00,75.6,72.1,29.25,South,183,0.0,0.0,89,0.00,,,0.00,0,WeatherCatV1.24B11,2014-09-02 23:23:00,
2014-09-02 19:24:00,75.6,72.1,29.25,South,183,0.0,0.0,89,0.00,,,0.00,0,WeatherCatV1.24B11,2014-09-02 23:24:00,
2014-09-02 19:25:00,75.5,72.0,29.25,South,183,0.0,0.0,89,0.00,,,0.00,0,WeatherCatV1.24B11,2014-09-02 23:25:00,
2014-09-02 19:26:00,75.4,71.9,29.25,South,184,0.0,0.0,89,0.00,,,0.00,0,WeatherCatV1.24B11,2014-09-02 23:26:00,
2014-09-02 19:28:00,75.4,71.9,29.25,South,184,0.0,0.0,89,0.00,,,0.00,0,WeatherCatV1.24B11,2014-09-02 23:28:00,
2014-09-02 19:29:00,75.3,71.8,29.25,South,184,0.0,0.0,89,0.00,,,0.00,0,WeatherCatV1.24B11,2014-09-02 23:29:00,
2014-09-02 19:30:00,75.2,71.7,29.25,South,184,0.0,0.0,89,0.00,,,0.00,0,WeatherCatV1.24B11,2014-09-02 23:30:00,
2014-09-02 19:32:00,75.1,71.6,29.24,South,184,0.0,0.0,89,0.00,,,0.00,0,WeatherCatV1.24B11,2014-09-02 23:32:00,
2014-09-02 19:33:00,75.0,71.5,29.24,South,184,0.0,0.0,89,0.00,,,0.00,0,WeatherCatV1.24B11,2014-09-02 23:33:00,
2014-09-02 19:34:00,75.0,71.5,29.24,South,184,0.0,0.0,89,0.00,,,0.00,0,WeatherCatV1.24B11,2014-09-02 23:34:00,
2014-09-02 19:35:00,74.9,71.4,29.24,South,184,0.0,0.0,89,0.00,,,0.00,0,WeatherCatV1.24B11,2014-09-02 23:35:00,
2014-09-02 19:36:00,74.9,71.4,29.24,South,184,0.0,0.0,89,0.00,,,0.00,0,WeatherCatV1.24B11,2014-09-02 23:36:00,
2014-09-02 19:37:00,74.8,71.3,29.24,South,184,0.0,0.0,89,0.00,,,0.00,0,WeatherCatV1.24B11,2014-09-02 23:37:00,
2014-09-02 19:38:00,74.8,71.3,29.24,South,184,0.0,0.0,89,0.00,,,0.00,0,WeatherCatV1.24B11,2014-09-02 23:38:00,
2014-09-02 19:39:00,74.7,71.2,29.24,South,184,0.0,0.0,89,0.00,,,0.00,0,WeatherCatV1.24B11,2014-09-02 23:39:00,
2014-09-02 19:40:00,74.6,71.1,29.24,South,184,0.0,0.0,89,0.00,,,0.00,0,WeatherCatV1.24B11,2014-09-02 23:40:00,
2014-09-02 19:41:00,74.6,71.1,29.24,South,184,0.0,0.0,89,0.00,,,0.00,0,WeatherCatV1.24B11,2014-09-02 23:41:00,
2014-09-02 19:43:00,74.5,71.4,29.25,South,184,0.0,0.0,90,0.00,,,0.00,0,WeatherCatV1.24B11,2014-09-02 23:43:00,
2014-09-02 19:44:00,74.5,71.4,29.24,South,184,0.0,0.0,90,0.00,,,0.00,0,WeatherCatV1.24B11,2014-09-02 23:44:00,
2014-09-02 19:46:00,74.4,71.3,29.24,South,184,0.0,0.0,90,0.00,,,0.00,0,WeatherCatV1.24B11,2014-09-02 23:46:00,
2014-09-02 19:48:00,74.2,71.1,29.24,South,184,0.0,0.0,90,0.00,,,0.00,0,WeatherCatV1.24B11,2014-09-02 23:48:00,
2014-09-02 19:49:00,74.2,71.1,29.24,South,184,0.0,0.0,90,0.00,,,0.00,0,WeatherCatV1.24B11,2014-09-02 23:49:00,
2014-09-02 19:50:00,74.1,71.0,29.24,South,184,0.0,0.0,90,0.00,,,0.00,0,WeatherCatV1.24B11,2014-09-02 23:50:00,
2014-09-02 19:51:00,74.1,71.0,29.24,South,184,0.0,0.0,90,0.00,,,0.00,0,WeatherCatV1.24B11,2014-09-02 23:51:00,
2014-09-02 19:52:00,74.1,71.0,29.24,South,184,0.0,0.0,90,0.00,,,0.00,0,WeatherCatV1.24B11,2014-09-02 23:52:00,
2014-09-02 19:53:00,74.0,70.9,29.25,South,184,0.0,0.0,90,0.00,,,0.00,0,WeatherCatV1.24B11,2014-09-02 23:53:00,
2014-09-02 19:54:00,74.0,70.9,29.24,South,184,0.0,0.0,90,0.00,,,0.00,0,WeatherCatV1.24B11,2014-09-02 23:54:00,
2014-09-02 19:55:00,73.9,70.8,29.24,South,184,0.0,0.0,90,0.00,,,0.00,0,WeatherCatV1.24B11,2014-09-02 23:55:00,
2014-09-02 19:56:00,73.9,70.8,29.24,South,184,0.0,0.0,90,0.00,,,0.00,0,WeatherCatV1.24B11,2014-09-02 23:56:00,
2014-09-02 19:57:00,73.9,70.8,29.24,South,184,0.0,0.0,90,0.00,,,0.00,0,WeatherCatV1.24B11,2014-09-02 23:57:00,
2014-09-02 19:58:00,73.9,70.8,29.24,South,184,0.0,0.0,90,0.00,,,0.00,0,WeatherCatV1.24B11,2014-09-02 23:58:00,
2014-09-02 19:59:00,73.8,70.7,29.24,South,184,0.0,0.0,90,0.00,,,0.00,0,WeatherCatV1.24B11,2014-09-02 23:59:00,
2014-09-02 20:00:00,73.8,70.7,29.24,South,184,0.0,0.0,90,0.00,,,0.00,0,WeatherCatV1.24B11,2014-09-03 00:00:00,
2014-09-02 20:02:00,73.7,70.9,29.24,South,184,0.0,0.0,91,0.00,,,0.00,0,WeatherCatV1.24B11,2014-09-03 00:02:00,
2014-09-02 20:03:00,73.7,70.9,29.24,South,184,0.0,0.0,91,0.00,,,0.00,0,WeatherCatV1.24B11,2014-09-03 00:03:00,
2014-09-02 20:04:00,73.7,70.9,29.24,South,184,0.0,0.0,91,0.00,,,0.00,0,WeatherCatV1.24B11,2014-09-03 00:04:00,
2014-09-02 20:05:00,73.6,70.8,29.24,South,184,0.0,0.0,91,0.00,,,0.00,0,WeatherCatV1.24B11,2014-09-03 00:05:00,
2014-09-02 20:07:00,73.5,70.7,29.24,South,184,0.0,0.0,91,0.00,,,0.00,0,WeatherCatV1.24B11,2014-09-03 00:07:00,
2014-09-02 20:08:00,73.5,70.7,29.24,South,184,0.0,0.0,91,0.00,,,0.00,0,WeatherCatV1.24B11,2014-09-03 00:08:00,
2014-09-02 20:09:00,73.5,70.7,29.24,South,184,0.0,0.0,91,0.00,,,0.00,0,WeatherCatV1.24B11,2014-09-03 00:09:00,
2014-09-02 20:10:00,73.4,70.6,29.24,South,184,0.0,0.0,91,0.00,,,0.00,0,WeatherCatV1.24B11,2014-09-03 00:10:00,
2014-09-02 20:11:00,73.4,70.6,29.24,South,184,0.0,0.0,91,0.00,,,0.00,0,WeatherCatV1.24B11,2014-09-03 00:11:00,
2014-09-02 20:12:00,73.3,70.5,29.24,South,184,0.0,0.0,91,0.00,,,0.00,0,WeatherCatV1.24B11,2014-09-03 00:12:00,
2014-09-02 20:13:00,73.3,70.5,29.25,South,184,0.0,0.0,91,0.00,,,0.00,0,WeatherCatV1.24B11,2014-09-03 00:13:00,
2014-09-02 20:14:00,73.3,70.5,29.24,South,184,0.0,0.0,91,0.00,,,0.00,0,WeatherCatV1.24B11,2014-09-03 00:14:00,
2014-09-02 20:15:00,73.2,70.4,29.24,South,184,0.0,0.0,91,0.00,,,0.00,0,WeatherCatV1.24B11,2014-09-03 00:15:00,
2014-09-02 20:17:00,73.1,70.3,29.24,South,184,0.0,0.0,91,0.00,,,0.00,0,WeatherCatV1.24B11,2014-09-03 00:17:00,
2014-09-02 20:18:00,73.1,70.3,29.24,South,184,0.0,0.0,91,0.00,,,0.00,0,WeatherCatV1.24B11,2014-09-03 00:18:00,
2014-09-02 20:19:00,73.0,70.2,29.24,South,184,0.0,0.0,91,0.00,,,0.00,0,WeatherCatV1.24B11,2014-09-03 00:19:00,
2014-09-02 20:20:00,73.0,70.2,29.24,South,184,0.0,0.0,91,0.00,,,0.00,0,WeatherCatV1.24B11,2014-09-03 00:20:00,
2014-09-02 20:21:00,73.0,70.2,29.24,South,184,0.0,0.0,91,0.00,,,0.00,0,WeatherCatV1.24B11,2014-09-03 00:21:00,
2014-09-02 20:22:00,72.9,70.1,29.24,South,184,0.0,0.0,91,0.00,,,0.00,0,WeatherCatV1.24B11,2014-09-03 00:22:00,
2014-09-02 20:23:00,72.9,70.1,29.24,South,184,0.0,0.0,91,0.00,,,0.00,0,WeatherCatV1.24B11,2014-09-03 00:23:00,
2014-09-02 20:24:00,72.8,70.0,29.24,South,184,0.0,0.0,91,0.00,,,0.00,0,WeatherCatV1.24B11,2014-09-03 00:24:00,
2014-09-02 20:25:00,72.8,70.0,29.24,South,184,0.0,0.0,91,0.00,,,0.00,0,WeatherCatV1.24B11,2014-09-03 00:25:00,
2014-09-02 20:26:00,72.8,70.0,29.24,South,184,0.0,0.0,91,0.00,,,0.00,0,WeatherCatV1.24B11,2014-09-03 00:26:00,
2014-09-02 20:27:00,72.7,69.9,29.24,South,184,0.0,0.0,91,0.00,,,0.00,0,WeatherCatV1.24B11,2014-09-03 00:27:00,
2014-09-02 20:28:00,72.7,69.9,29.24,South,184,0.0,0.0,91,0.00,,,0.00,0,WeatherCatV1.24B11,2014-09-03 00:28:00,
2014-09-02 20:29:00,72.7,69.9,29.24,South,184,0.0,0.0,91,0.00,,,0.00,0,WeatherCatV1.24B11,2014-09-03 00:29:00,
2014-09-02 20:30:00,72.7,70.2,29.24,South,184,0.0,0.0,92,0.00,,,0.00,0,WeatherCatV1.24B11,2014-09-03 00:30:00,
2014-09-02 20:32:00,72.6,70.1,29.24,South,184,0.0,0.0,92,0.00,,,0.00,0,WeatherCatV1.24B11,2014-09-03 00:32:00,
2014-09-02 20:33:00,72.6,70.1,29.24,South,184,0.0,0.0,92,0.00,,,0.00,0,WeatherCatV1.24B11,2014-09-03 00:33:00,
2014-09-02 20:34:00,72.6,70.1,29.24,South,184,0.0,0.0,92,0.00,,,0.00,0,WeatherCatV1.24B11,2014-09-03 00:34:00,
2014-09-02 20:35:00,72.5,70.0,29.24,South,184,0.0,0.0,92,0.00,,,0.00,0,WeatherCatV1.24B11,2014-09-03 00:35:00,
2014-09-02 20:37:00,72.5,70.0,29.24,South,184,0.0,0.0,92,0.00,,,0.00,0,WeatherCatV1.24B11,2014-09-03 00:37:00,
2014-09-02 20:38:00,72.4,69.9,29.24,South,184,0.0,0.0,92,0.00,,,0.00,0,WeatherCatV1.24B11,2014-09-03 00:38:00,
2014-09-02 20:39:00,72.4,69.9,29.24,South,184,0.0,0.0,92,0.00,,,0.00,0,WeatherCatV1.24B11,2014-09-03 00:39:00,
2014-09-02 20:40:00,72.3,69.8,29.24,South,184,0.0,0.0,92,0.00,,,0.00,0,WeatherCatV1.24B11,2014-09-03 00:40:00,
2014-09-02 20:43:00,72.2,69.7,29.24,South,184,0.0,0.0,92,0.00,,,0.00,0,WeatherCatV1.24B11,2014-09-03 00:43:00,
2014-09-02 20:44:00,72.2,69.7,29.24,South,184,0.0,0.0,92,0.00,,,0.00,0,WeatherCatV1.24B11,2014-09-03 00:44:00,
2014-09-02 20:45:00,72.2,69.7,29.24,South,184,0.0,0.0,92,0.00,,,0.00,0,WeatherCatV1.24B11,2014-09-03 00:45:00,
2014-09-02 20:46:00,72.2,69.7,29.24,South,184,0.0,0.0,92,0.00,,,0.00,0,WeatherCatV1.24B11,2014-09-03 00:46:00,
2014-09-02 20:48:00,72.1,69.6,29.24,South,184,0.0,0.0,92,0.00,,,0.00,0,WeatherCatV1.24B11,2014-09-03 00:48:00,
2014-09-02 20:49:00,72.1,69.6,29.24,South,184,0.0,0.0,92,0.00,,,0.00,0,WeatherCatV1.24B11,2014-09-03 00:49:00,
2014-09-02 20:50:00,72.0,69.5,29.24,South,184,0.0,0.0,92,0.00,,,0.00,0,WeatherCatV1.24B11,2014-09-03 00:50:00,
2014-09-02 20:51:00,72.0,69.5,29.24,South,184,0.0,0.0,92,0.00,,,0.00,0,WeatherCatV1.24B11,2014-09-03 00:51:00,
2014-09-02 20:54:00,71.9,69.4,29.24,South,184,0.0,0.0,92,0.00,,,0.00,0,WeatherCatV1.24B11,2014-09-03 00:54:00,
2014-09-02 20:55:00,71.9,69.4,29.24,South,184,0.0,0.0,92,0.00,,,0.00,0,WeatherCatV1.24B11,2014-09-03 00:55:00,
2014-09-02 20:56:00,71.9,69.4,29.24,South,184,0.0,0.0,92,0.00,,,0.00,0,WeatherCatV1.24B11,2014-09-03 00:56:00,
2014-09-02 20:59:00,71.8,69.3,29.24,South,184,0.0,0.0,92,0.00,,,0.00,0,WeatherCatV1.24B11,2014-09-03 00:59:00,
2014-09-02 21:00:00,71.8,69.3,29.24,South,184,0.0,0.0,92,0.00,,,0.00,0,WeatherCatV1.24B11,2014-09-03 01:00:00,
2014-09-02 21:01:00,71.7,69.2,29.24,South,184,0.0,0.0,92,0.00,,,0.00,0,WeatherCatV1.24B11,2014-09-03 01:01:00,
2014-09-02 21:04:00,71.7,69.6,29.24,South,184,0.0,0.0,93,0.00,,,0.00,0,WeatherCatV1.24B11,2014-09-03 01:04:00,
2014-09-02 21:05:00,71.6,69.5,29.24,South,184,0.0,0.0,93,0.00,,,0.00,0,WeatherCatV1.24B11,2014-09-03 01:05:00,